Observation data for Mertzon on 08/05/2020      Previous  Date       Current Mesonet Observations  Soil Data  Daily Summary Page  Observations in Plain Language
KME1 050500Z 18009KT 28/14 A3001 RMK A01 T02820137  RH  041%=      5-min Rain = 0
KME1 050501Z 18009KT 28/14 A3001 RMK A01 T02820137  RH  041%=      5-min Rain = 0
KME1 050502Z 18008KT 28/14 A3001 RMK A01 T02820137  RH  041%=      5-min Rain = 0
KME1 050503Z 18007KT 28/14 A3001 RMK A01 T02820137  RH  041%=      5-min Rain = 0
KME1 050504Z 19008KT 28/14 A3001 RMK A01 T02810136  RH  041%=      5-min Rain = 0
KME1 050505Z 18008KT 28/14 A3001 RMK A01 T02810137  RH  041%=      5-min Rain = 0
KME1 050506Z 18009KT 28/14 A3001 RMK A01 T02810137  RH  041%=      5-min Rain = 0
KME1 050507Z 18009KT 28/14 A3001 RMK A01 T02800137  RH  041%=      5-min Rain = 0
KME1 050508Z 18010KT 28/14 A3001 RMK A01 T02800137  RH  041%=      5-min Rain = 0
KME1 050509Z 18009KT 28/14 A3001 RMK A01 T02800137  RH  041%=      5-min Rain = 0
KME1 050510Z 18008KT 28/14 A3001 RMK A01 T02800136  RH  041%=      5-min Rain = 0
KME1 050511Z 18009KT 28/14 A3001 RMK A01 T02800137  RH  041%=      5-min Rain = 0
KME1 050512Z 18009KT 28/14 A3001 RMK A01 T02800137  RH  041%=      5-min Rain = 0
KME1 050513Z 18008KT 28/14 A3001 RMK A01 T02800137  RH  041%=      5-min Rain = 0
KME1 050514Z 19008G13KT 28/14 A3001 RMK A01 T02800137  RH  041%=      5-min Rain = 0
KME1 050515Z 18009KT 28/14 A3001 RMK A01 T02800137  RH  041%=      5-min Rain = 0
KME1 050516Z 18009KT 28/14 A3001 RMK A01 T02800137  RH  041%=      5-min Rain = 0
KME1 050517Z 18009KT 28/14 A3001 RMK A01 T02800137  RH  041%=      5-min Rain = 0
KME1 050518Z 19009KT 28/14 A3001 RMK A01 T02800137  RH  041%=      5-min Rain = 0
KME1 050519Z 19008KT 28/14 A3001 RMK A01 T02800137  RH  041%=      5-min Rain = 0
KME1 050520Z 18009KT 28/14 A3001 RMK A01 T02800137  RH  041%=      5-min Rain = 0
KME1 050521Z 18008KT 28/14 A3001 RMK A01 T02800137  RH  041%=      5-min Rain = 0
KME1 050522Z 18008KT 28/14 A3001 RMK A01 T02800137  RH  041%=      5-min Rain = 0
KME1 050523Z 18009KT 28/14 A3001 RMK A01 T02800137  RH  041%=      5-min Rain = 0
KME1 050524Z 18009KT 28/14 A3001 RMK A01 T02800137  RH  042%=      5-min Rain = 0
KME1 050525Z 18009KT 28/14 A3001 RMK A01 T02800137  RH  042%=      5-min Rain = 0
KME1 050526Z 18009KT 28/14 A3001 RMK A01 T02800137  RH  042%=      5-min Rain = 0
KME1 050527Z 18010KT 28/14 A3001 RMK A01 T02800137  RH  042%=      5-min Rain = 0
KME1 050528Z 18009KT 28/14 A3001 RMK A01 T02800137  RH  042%=      5-min Rain = 0
KME1 050529Z 18009KT 28/14 A3001 RMK A01 T02800137  RH  041%=      5-min Rain = 0
KME1 050530Z 18008KT 28/14 A3001 RMK A01 T02810138  RH  041%=      5-min Rain = 0
KME1 050531Z 18008KT 28/14 A3001 RMK A01 T02810138  RH  042%=      5-min Rain = 0
KME1 050532Z 18008KT 28/14 A30 RMK A01 T02790137  RH  042%=      5-min Rain = 0
KME1 050533Z 18009KT 28/14 A30 RMK A01 T02790138  RH  042%=      5-min Rain = 0
KME1 050534Z 18010KT 28/14 A30 RMK A01 T02790138  RH  042%=      5-min Rain = 0
KME1 050535Z 18009KT 28/14 A30 RMK A01 T02790138  RH  042%=      5-min Rain = 0
KME1 050536Z 18010KT 28/14 A30 RMK A01 T02800138  RH  042%=      5-min Rain = 0
KME1 050537Z 18011KT 28/14 A30 RMK A01 T02800138  RH  042%=      5-min Rain = 0
KME1 050538Z 18009KT 28/14 A30 RMK A01 T02800138  RH  042%=      5-min Rain = 0
KME1 050539Z 18010KT 28/14 A30 RMK A01 T02810138  RH  042%=      5-min Rain = 0
KME1 050540Z 18011KT 28/14 A30 RMK A01 T02810138  RH  042%=      5-min Rain = 0
KME1 050541Z 18010KT 28/14 A30 RMK A01 T02800138  RH  042%=      5-min Rain = 0
KME1 050542Z 18011KT 28/14 A30 RMK A01 T02810138  RH  041%=      5-min Rain = 0
KME1 050543Z 18011KT 28/14 A30 RMK A01 T02810138  RH  041%=      5-min Rain = 0
KME1 050544Z 18010KT 28/14 A30 RMK A01 T02810138  RH  041%=      5-min Rain = 0
KME1 050545Z 18011KT 28/14 A30 RMK A01 T02810138  RH  041%=      5-min Rain = 0
KME1 050546Z 18010KT 28/14 A30 RMK A01 T02810138  RH  041%=      5-min Rain = 0
KME1 050547Z 18009KT 28/14 A30 RMK A01 T02810138  RH  041%=      5-min Rain = 0
KME1 050548Z 18011KT 28/14 A30 RMK A01 T02820138  RH  041%=      5-min Rain = 0
KME1 050549Z 18009KT 28/14 A30 RMK A01 T02820139  RH  041%=      5-min Rain = 0
KME1 050550Z 18009KT 28/14 A30 RMK A01 T02810138  RH  041%=      5-min Rain = 0
KME1 050551Z 18009KT 28/14 A30 RMK A01 T02810138  RH  042%=      5-min Rain = 0
KME1 050552Z 18011KT 28/14 A30 RMK A01 T02810138  RH  042%=      5-min Rain = 0
KME1 050553Z 18011KT 28/14 A30 RMK A01 T02810139  RH  042%=      5-min Rain = 0
KME1 050554Z 18010KT 28/14 A30 RMK A01 T02810138  RH  042%=      5-min Rain = 0
KME1 050555Z 18009KT 28/14 A30 RMK A01 T02810138  RH  042%=      5-min Rain = 0
KME1 050556Z 18009KT 28/14 A30 RMK A01 T02800138  RH  042%=      5-min Rain = 0
KME1 050557Z 18009KT 28/14 A30 RMK A01 T02810139  RH  042%=      5-min Rain = 0
KME1 050558Z 18009KT 28/14 A30 RMK A01 T02800138  RH  042%=      5-min Rain = 0
KME1 050559Z 18009KT 28/14 A30 RMK A01 T02800138  RH  042%=      5-min Rain = 0
KME1 050600Z 18010KT 28/14 A30 RMK A01 T02800138  RH  042%=      5-min Rain = 0
KME1 050601Z 18010KT 28/14 A30 RMK A01 T02800139  RH  042%=      5-min Rain = 0
KME1 050602Z 18008KT 28/14 A30 RMK A01 T02800138  RH  042%=      5-min Rain = 0
KME1 050603Z 18010KT 28/14 A30 RMK A01 T02800139  RH  042%=      5-min Rain = 0
KME1 050604Z 18009KT 28/14 A30 RMK A01 T02790139  RH  042%=      5-min Rain = 0
KME1 050605Z 18009KT 28/14 A30 RMK A01 T02790139  RH  042%=      5-min Rain = 0
KME1 050606Z 18008KT 28/14 A30 RMK A01 T02790139  RH  042%=      5-min Rain = 0
KME1 050607Z 18008KT 28/14 A30 RMK A01 T02780138  RH  042%=      5-min Rain = 0
KME1 050608Z 18009KT 28/14 A30 RMK A01 T02780139  RH  042%=      5-min Rain = 0
KME1 050609Z 18009KT 28/14 A30 RMK A01 T02780139  RH  042%=      5-min Rain = 0
KME1 050610Z 18008KT 28/14 A30 RMK A01 T02780139  RH  042%=      5-min Rain = 0
KME1 050611Z 18008KT 28/14 A30 RMK A01 T02770139  RH  043%=      5-min Rain = 0
KME1 050612Z 18008KT 28/14 A30 RMK A01 T02770139  RH  043%=      5-min Rain = 0
KME1 050613Z 18010KT 28/14 A30 RMK A01 T02770139  RH  043%=      5-min Rain = 0
KME1 050614Z 18008KT 28/14 A30 RMK A01 T02770139  RH  043%=      5-min Rain = 0
KME1 050615Z 17011KT 28/14 A30 RMK A01 T02770139  RH  043%=      5-min Rain = 0
KME1 050616Z 18009KT 28/14 A30 RMK A01 T02770139  RH  043%=      5-min Rain = 0
KME1 050617Z 18010KT 28/14 A2999 RMK A01 T02770139  RH  043%=      5-min Rain = 0
KME1 050618Z 18010KT 28/14 A2999 RMK A01 T02770139  RH  043%=      5-min Rain = 0
KME1 050619Z 18009KT 28/14 A2999 RMK A01 T02770139  RH  043%=      5-min Rain = 0
KME1 050620Z 19009KT 28/14 A2999 RMK A01 T02770140  RH  043%=      5-min Rain = 0
KME1 050621Z 18009G14KT 28/14 A2999 RMK A01 T02770140  RH  043%=      5-min Rain = 0
KME1 050622Z 18010G15KT 28/14 A2999 RMK A01 T02770140  RH  043%=      5-min Rain = 0
KME1 050623Z 18009KT 28/14 A2999 RMK A01 T02770140  RH  043%=      5-min Rain = 0
KME1 050624Z 18009KT 28/14 A2999 RMK A01 T02770140  RH  043%=      5-min Rain = 0
KME1 050625Z 18009KT 28/14 A2999 RMK A01 T02770140  RH  043%=      5-min Rain = 0
KME1 050626Z 18009KT 28/14 A2999 RMK A01 T02770140  RH  043%=      5-min Rain = 0
KME1 050627Z 18010KT 28/14 A2999 RMK A01 T02770140  RH  043%=      5-min Rain = 0
KME1 050628Z 18011KT 28/14 A2999 RMK A01 T02770141  RH  043%=      5-min Rain = 0
KME1 050629Z 18013KT 28/14 A2999 RMK A01 T02770141  RH  043%=      5-min Rain = 0
KME1 050630Z 18013KT 28/14 A2999 RMK A01 T02780141  RH  043%=      5-min Rain = 0
KME1 050631Z 18009G14KT 28/14 A2999 RMK A01 T02790142  RH  043%=      5-min Rain = 0
KME1 050632Z 18009KT 28/14 A2999 RMK A01 T02790142  RH  043%=      5-min Rain = 0
KME1 050633Z 18012KT 28/14 A2999 RMK A01 T02780142  RH  043%=      5-min Rain = 0
KME1 050634Z 19010KT 28/14 A2999 RMK A01 T02780142  RH  043%=      5-min Rain = 0
KME1 050635Z 18011KT 28/14 A2999 RMK A01 T02780142  RH  043%=      5-min Rain = 0
KME1 050636Z 18012KT 28/14 A2999 RMK A01 T02780142  RH  043%=      5-min Rain = 0
KME1 050637Z 18011KT 28/14 A2999 RMK A01 T02780143  RH  043%=      5-min Rain = 0
KME1 050638Z 18013KT 28/14 A2999 RMK A01 T02780143  RH  043%=      5-min Rain = 0
KME1 050639Z 18010KT 28/14 A2999 RMK A01 T02790143  RH  043%=      5-min Rain = 0
KME1 050640Z 18009KT 28/14 A30 RMK A01 T02790143  RH  043%=      5-min Rain = 0
KME1 050641Z 18009KT 28/14 A30 RMK A01 T02790143  RH  043%=      5-min Rain = 0
KME1 050642Z 19009KT 28/14 A30 RMK A01 T02780143  RH  044%=      5-min Rain = 0
KME1 050643Z 18009KT 28/14 A30 RMK A01 T02780143  RH  044%=      5-min Rain = 0
KME1 050644Z 19010KT 28/14 A30 RMK A01 T02780143  RH  044%=      5-min Rain = 0
KME1 050645Z 19009KT 28/14 A30 RMK A01 T02780144  RH  044%=      5-min Rain = 0
KME1 050646Z 19009KT 28/14 A30 RMK A01 T02780144  RH  044%=      5-min Rain = 0
KME1 050647Z 18008KT 28/14 A30 RMK A01 T02770144  RH  044%=      5-min Rain = 0
KME1 050648Z 19010KT 28/14 A2999 RMK A01 T02770144  RH  044%=      5-min Rain = 0
KME1 050649Z 19009KT 28/15 A2999 RMK A01 T02770145  RH  044%=      5-min Rain = 0
KME1 050650Z 19008KT 28/14 A2999 RMK A01 T02770144  RH  044%=      5-min Rain = 0
KME1 050651Z 19010KT 28/14 A30 RMK A01 T02770144  RH  044%=      5-min Rain = 0
KME1 050652Z 19011KT 28/14 A30 RMK A01 T02770144  RH  044%=      5-min Rain = 0
KME1 050653Z 19009KT 28/15 A30 RMK A01 T02770145  RH  044%=      5-min Rain = 0
KME1 050654Z 19008KT 28/15 A30 RMK A01 T02770145  RH  044%=      5-min Rain = 0
KME1 050655Z 19008KT 28/15 A30 RMK A01 T02770145  RH  044%=      5-min Rain = 0
KME1 050656Z 18009G15KT 28/15 A30 RMK A01 T02760145  RH  045%=      5-min Rain = 0
KME1 050657Z 19009KT 28/15 A2999 RMK A01 T02760145  RH  045%=      5-min Rain = 0
KME1 050658Z 18008KT 28/15 A2999 RMK A01 T02760145  RH  045%=      5-min Rain = 0
KME1 050659Z 19010KT 28/15 A30 RMK A01 T02770145  RH  045%=      5-min Rain = 0
KME1 050700Z 18010KT 28/15 A30 RMK A01 T02770146  RH  045%=      5-min Rain = 0
KME1 050701Z 18008KT 28/15 A30 RMK A01 T02760145  RH  045%=      5-min Rain = 0
KME1 050702Z 18011KT 28/15 A30 RMK A01 T02770146  RH  045%=      5-min Rain = 0
KME1 050703Z 18010G15KT 28/15 A30 RMK A01 T02770146  RH  045%=      5-min Rain = 0
KME1 050704Z 18011KT 28/15 A30 RMK A01 T02770146  RH  045%=      5-min Rain = 0
KME1 050705Z 18011KT 28/15 A2999 RMK A01 T02770146  RH  045%=      5-min Rain = 0
KME1 050706Z 18012KT 28/15 A2999 RMK A01 T02780146  RH  045%=      5-min Rain = 0
KME1 050707Z 18010KT 28/15 A2999 RMK A01 T02780146  RH  045%=      5-min Rain = 0
KME1 050708Z 19011KT 28/15 A2999 RMK A01 T02780146  RH  044%=      5-min Rain = 0
KME1 050709Z 18013KT 28/15 A2999 RMK A01 T02780147  RH  044%=      5-min Rain = 0
KME1 050710Z 18013KT 28/15 A2999 RMK A01 T02780147  RH  045%=      5-min Rain = 0
KME1 050711Z 18012KT 28/15 A2999 RMK A01 T02780147  RH  045%=      5-min Rain = 0
KME1 050712Z 19010KT 28/15 A2999 RMK A01 T02790147  RH  045%=      5-min Rain = 0
KME1 050713Z 19009KT 28/15 A2999 RMK A01 T02780147  RH  045%=      5-min Rain = 0
KME1 050714Z 18011KT 28/15 A2999 RMK A01 T02780147  RH  045%=      5-min Rain = 0
KME1 050715Z 19011KT 28/15 A2999 RMK A01 T02770147  RH  045%=      5-min Rain = 0
KME1 050716Z 18009KT 28/15 A2999 RMK A01 T02780147  RH  045%=      5-min Rain = 0
KME1 050717Z 19010KT 28/15 A2999 RMK A01 T02770147  RH  045%=      5-min Rain = 0
KME1 050718Z 19011KT 28/15 A2999 RMK A01 T02770147  RH  045%=      5-min Rain = 0
KME1 050719Z 19009KT 28/15 A2999 RMK A01 T02770147  RH  045%=      5-min Rain = 0
KME1 050720Z 18010KT 28/15 A30 RMK A01 T02770147  RH  045%=      5-min Rain = 0
KME1 050721Z 18010KT 28/15 A2999 RMK A01 T02770147  RH  045%=      5-min Rain = 0
KME1 050722Z 18011KT 28/15 A2999 RMK A01 T02770147  RH  045%=      5-min Rain = 0
KME1 050723Z 19011KT 28/15 A2999 RMK A01 T02770147  RH  045%=      5-min Rain = 0
KME1 050724Z 19010KT 28/15 A2999 RMK A01 T02760147  RH  045%=      5-min Rain = 0
KME1 050725Z 19008KT 28/15 A2999 RMK A01 T02760147  RH  045%=      5-min Rain = 0
KME1 050726Z 19010KT 28/15 A2999 RMK A01 T02760147  RH  045%=      5-min Rain = 0
KME1 050727Z 19009KT 28/15 A2999 RMK A01 T02750147  RH  046%=      5-min Rain = 0
KME1 050728Z 19011KT 28/15 A2999 RMK A01 T02750147  RH  046%=      5-min Rain = 0
KME1 050729Z 18010KT 28/15 A2999 RMK A01 T02750148  RH  046%=      5-min Rain = 0
KME1 050730Z 19010G15KT 28/15 A2999 RMK A01 T02750148  RH  046%=      5-min Rain = 0
KME1 050731Z 18011KT 28/15 A2999 RMK A01 T02750148  RH  046%=      5-min Rain = 0
KME1 050732Z 18012KT 28/15 A2999 RMK A01 T02750148  RH  046%=      5-min Rain = 0
KME1 050733Z 19009KT 28/15 A30 RMK A01 T02760148  RH  046%=      5-min Rain = 0
KME1 050734Z 18009KT 28/15 A30 RMK A01 T02760148  RH  046%=      5-min Rain = 0
KME1 050735Z 18011KT 28/15 A30 RMK A01 T02750148  RH  046%=      5-min Rain = 0
KME1 050736Z 19011G16KT 28/15 A30 RMK A01 T02750148  RH  046%=      5-min Rain = 0
KME1 050737Z 18010KT 28/15 A30 RMK A01 T02750148  RH  046%=      5-min Rain = 0
KME1 050738Z 19009KT 28/15 A30 RMK A01 T02750149  RH  046%=      5-min Rain = 0
KME1 050739Z 18009KT 27/15 A30 RMK A01 T02740148  RH  046%=      5-min Rain = 0
KME1 050740Z 19012KT 27/15 A30 RMK A01 T02740148  RH  046%=      5-min Rain = 0
KME1 050741Z 18011KT 27/15 A30 RMK A01 T02740149  RH  046%=      5-min Rain = 0
KME1 050742Z 18013KT 27/15 A30 RMK A01 T02740148  RH  046%=      5-min Rain = 0
KME1 050743Z 18011KT 27/15 A30 RMK A01 T02740149  RH  046%=      5-min Rain = 0
KME1 050744Z 18009KT 27/15 A30 RMK A01 T02740149  RH  046%=      5-min Rain = 0
KME1 050745Z 19010KT 27/15 A30 RMK A01 T02740149  RH  046%=      5-min Rain = 0
KME1 050746Z 18012KT 27/15 A30 RMK A01 T02740149  RH  046%=      5-min Rain = 0
KME1 050747Z 18010KT 27/15 A30 RMK A01 T02740150  RH  046%=      5-min Rain = 0
KME1 050748Z 18011KT 27/15 A30 RMK A01 T02740150  RH  047%=      5-min Rain = 0
KME1 050749Z 18010KT 27/15 A30 RMK A01 T02740150  RH  047%=      5-min Rain = 0
KME1 050750Z 18011KT 27/15 A2999 RMK A01 T02740150  RH  047%=      5-min Rain = 0
KME1 050751Z 18011KT 27/15 A2999 RMK A01 T02740150  RH  047%=      5-min Rain = 0
KME1 050752Z 18010KT 27/15 A2999 RMK A01 T02740150  RH  047%=      5-min Rain = 0
KME1 050753Z 18010KT 27/15 A2999 RMK A01 T02740150  RH  047%=      5-min Rain = 0
KME1 050754Z 19011KT 27/15 A30 RMK A01 T02730150  RH  047%=      5-min Rain = 0
KME1 050755Z 18010KT 27/15 A30 RMK A01 T02730150  RH  047%=      5-min Rain = 0
KME1 050756Z 18012KT 27/15 A30 RMK A01 T02730150  RH  047%=      5-min Rain = 0
KME1 050757Z 18011KT 27/15 A30 RMK A01 T02730150  RH  047%=      5-min Rain = 0
KME1 050758Z 18011KT 27/15 A30 RMK A01 T02730150  RH  047%=      5-min Rain = 0
KME1 050759Z 18012KT 27/15 A2999 RMK A01 T02730150  RH  047%=      5-min Rain = 0
KME1 050800Z 18013G18KT 27/15 A2999 RMK A01 T02730150  RH  047%=      5-min Rain = 0
KME1 050801Z 18013KT 27/15 A2999 RMK A01 T02730151  RH  047%=      5-min Rain = 0
KME1 050802Z 18012KT 27/15 A2999 RMK A01 T02740151  RH  047%=      5-min Rain = 0
KME1 050803Z 18011KT 27/15 A2999 RMK A01 T02740151  RH  047%=      5-min Rain = 0
KME1 050804Z 18013KT 27/15 A2999 RMK A01 T02730151  RH  047%=      5-min Rain = 0
KME1 050805Z 18011KT 27/15 A2999 RMK A01 T02730151  RH  047%=      5-min Rain = 0
KME1 050806Z 18010G15KT 27/15 A2999 RMK A01 T02730151  RH  047%=      5-min Rain = 0
KME1 050807Z 18010KT 27/15 A2999 RMK A01 T02720151  RH  047%=      5-min Rain = 0
KME1 050808Z 18012KT 27/15 A2999 RMK A01 T02720151  RH  047%=      5-min Rain = 0
KME1 050809Z 18012KT 27/15 A2999 RMK A01 T02720151  RH  047%=      5-min Rain = 0
KME1 050810Z 19012KT 27/15 A2999 RMK A01 T02720151  RH  047%=      5-min Rain = 0
KME1 050811Z 18010KT 27/15 A2999 RMK A01 T02720151  RH  047%=      5-min Rain = 0
KME1 050812Z 19008KT 27/15 A2999 RMK A01 T02720151  RH  048%=      5-min Rain = 0
KME1 050813Z 18013KT 27/15 A2999 RMK A01 T02710151  RH  048%=      5-min Rain = 0
KME1 050814Z 19010KT 27/15 A30 RMK A01 T02720152  RH  048%=      5-min Rain = 0
KME1 050815Z 19010KT 27/15 A30 RMK A01 T02710152  RH  048%=      5-min Rain = 0
KME1 050816Z 19012KT 27/15 A30 RMK A01 T02710152  RH  048%=      5-min Rain = 0
KME1 050817Z 19009KT 27/15 A2999 RMK A01 T02700152  RH  048%=      5-min Rain = 0
KME1 050818Z 19014KT 27/15 A2999 RMK A01 T02710152  RH  048%=      5-min Rain = 0
KME1 050819Z 19013KT 27/15 A2999 RMK A01 T02720152  RH  048%=      5-min Rain = 0
KME1 050820Z 19009KT 27/15 A2999 RMK A01 T02720152  RH  048%=      5-min Rain = 0
KME1 050821Z 19011KT 27/15 A2999 RMK A01 T02720152  RH  048%=      5-min Rain = 0
KME1 050822Z 19012KT 27/15 A2999 RMK A01 T02710152  RH  048%=      5-min Rain = 0
KME1 050823Z 19011KT 27/15 A2999 RMK A01 T02710153  RH  048%=      5-min Rain = 0
KME1 050824Z 20010KT 27/15 A2999 RMK A01 T02700152  RH  048%=      5-min Rain = 0
KME1 050825Z 18011KT 27/15 A2999 RMK A01 T02700152  RH  048%=      5-min Rain = 0
KME1 050826Z 19011KT 27/15 A2999 RMK A01 T02700153  RH  049%=      5-min Rain = 0
KME1 050827Z 18012KT 27/15 A2999 RMK A01 T02690152  RH  049%=      5-min Rain = 0
KME1 050828Z 19011KT 27/15 A2999 RMK A01 T02700153  RH  049%=      5-min Rain = 0
KME1 050829Z 19011KT 27/15 A2999 RMK A01 T02700153  RH  049%=      5-min Rain = 0
KME1 050830Z 19011KT 27/15 A2999 RMK A01 T02690153  RH  049%=      5-min Rain = 0
KME1 050831Z 19011KT 27/15 A2999 RMK A01 T02690153  RH  049%=      5-min Rain = 0
KME1 050832Z 19009KT 27/15 A2999 RMK A01 T02690153  RH  049%=      5-min Rain = 0
KME1 050833Z 19010KT 27/15 A2999 RMK A01 T02690153  RH  049%=      5-min Rain = 0
KME1 050834Z 19011KT 27/15 A2999 RMK A01 T02690154  RH  049%=      5-min Rain = 0
KME1 050835Z 19009KT 27/15 A2999 RMK A01 T02690154  RH  049%=      5-min Rain = 0
KME1 050836Z 19013KT 27/15 A2999 RMK A01 T02690154  RH  049%=      5-min Rain = 0
KME1 050837Z 19009KT 27/15 A2999 RMK A01 T02690154  RH  049%=      5-min Rain = 0
KME1 050838Z 19009KT 27/15 A2999 RMK A01 T02700154  RH  049%=      5-min Rain = 0
KME1 050839Z 19010KT 27/15 A2999 RMK A01 T02690154  RH  049%=      5-min Rain = 0
KME1 050840Z 19011KT 27/15 A30 RMK A01 T02690154  RH  050%=      5-min Rain = 0
KME1 050841Z 19011KT 27/16 A30 RMK A01 T02690155  RH  050%=      5-min Rain = 0
KME1 050842Z 19010KT 27/16 A2999 RMK A01 T02690155  RH  050%=      5-min Rain = 0
KME1 050843Z 19011KT 27/16 A30 RMK A01 T02690155  RH  050%=      5-min Rain = 0
KME1 050844Z 18013KT 27/16 A30 RMK A01 T02690155  RH  050%=      5-min Rain = 0
KME1 050845Z 19012KT 27/16 A30 RMK A01 T02690155  RH  050%=      5-min Rain = 0
KME1 050846Z 19009KT 27/16 A2999 RMK A01 T02690155  RH  050%=      5-min Rain = 0
KME1 050847Z 19009KT 27/16 A2999 RMK A01 T02690155  RH  050%=      5-min Rain = 0
KME1 050848Z 18012KT 27/16 A2999 RMK A01 T02680155  RH  050%=      5-min Rain = 0
KME1 050849Z 19012KT 27/16 A2999 RMK A01 T02680155  RH  050%=      5-min Rain = 0
KME1 050850Z 19011KT 27/16 A2999 RMK A01 T02680156  RH  050%=      5-min Rain = 0
KME1 050851Z 19012KT 27/16 A2999 RMK A01 T02680155  RH  050%=      5-min Rain = 0
KME1 050852Z 19012KT 27/16 A2999 RMK A01 T02690156  RH  050%=      5-min Rain = 0
KME1 050853Z 18011KT 27/16 A2999 RMK A01 T02680156  RH  050%=      5-min Rain = 0
KME1 050854Z 18011KT 27/16 A30 RMK A01 T02690156  RH  050%=      5-min Rain = 0
KME1 050855Z 19010G15KT 27/16 A30 RMK A01 T02680156  RH  050%=      5-min Rain = 0
KME1 050856Z 19013KT 27/16 A30 RMK A01 T02680156  RH  050%=      5-min Rain = 0
KME1 050857Z 18010KT 27/16 A30 RMK A01 T02680157  RH  050%=      5-min Rain = 0
KME1 050858Z 19010KT 27/16 A30 RMK A01 T02680156  RH  050%=      5-min Rain = 0
KME1 050859Z 19012KT 27/16 A2999 RMK A01 T02680157  RH  050%=      5-min Rain = 0
KME1 050900Z 19013KT 27/16 A2999 RMK A01 T02680157  RH  051%=      5-min Rain = 0
KME1 050901Z 19011KT 27/16 A2999 RMK A01 T02680157  RH  051%=      5-min Rain = 0
KME1 050902Z 19012KT 27/16 A2999 RMK A01 T02680157  RH  051%=      5-min Rain = 0
KME1 050903Z 18012KT 27/16 A2999 RMK A01 T02680157  RH  051%=      5-min Rain = 0
KME1 050904Z 19012KT 27/16 A2999 RMK A01 T02680157  RH  051%=      5-min Rain = 0
KME1 050905Z 19013KT 27/16 A2999 RMK A01 T02680157  RH  051%=      5-min Rain = 0
KME1 050906Z 19012KT 27/16 A2999 RMK A01 T02680158  RH  051%=      5-min Rain = 0
KME1 050907Z 18012KT 27/16 A2999 RMK A01 T02680158  RH  051%=      5-min Rain = 0
KME1 050908Z 19010G15KT 27/16 A2999 RMK A01 T02680158  RH  051%=      5-min Rain = 0
KME1 050909Z 19011KT 27/16 A2999 RMK A01 T02670158  RH  051%=      5-min Rain = 0
KME1 050910Z 19009KT 27/16 A2999 RMK A01 T02670158  RH  051%=      5-min Rain = 0
KME1 050911Z 19009KT 27/16 A30 RMK A01 T02660158  RH  051%=      5-min Rain = 0
KME1 050912Z 19012KT 27/16 A30 RMK A01 T02660158  RH  051%=      5-min Rain = 0
KME1 050913Z 19012KT 27/16 A2999 RMK A01 T02660158  RH  051%=      5-min Rain = 0
KME1 050914Z 18013KT 27/16 A2999 RMK A01 T02660158  RH  051%=      5-min Rain = 0
KME1 050915Z 19010KT 27/16 A30 RMK A01 T02660158  RH  051%=      5-min Rain = 0
KME1 050916Z 19009KT 27/16 A30 RMK A01 T02660158  RH  052%=      5-min Rain = 0
KME1 050917Z 19014G19KT 27/16 A30 RMK A01 T02650158  RH  052%=      5-min Rain = 0
KME1 050918Z 18012KT 27/16 A30 RMK A01 T02650158  RH  052%=      5-min Rain = 0
KME1 050919Z 18013KT 27/16 A30 RMK A01 T02660158  RH  052%=      5-min Rain = 0
KME1 050920Z 18012KT 27/16 A30 RMK A01 T02660159  RH  052%=      5-min Rain = 0
KME1 050921Z 19012KT 27/16 A2999 RMK A01 T02650158  RH  052%=      5-min Rain = 0
KME1 050922Z 19013KT 27/16 A30 RMK A01 T02660158  RH  052%=      5-min Rain = 0
KME1 050923Z 18012KT 27/16 A2999 RMK A01 T02660159  RH  052%=      5-min Rain = 0
KME1 050924Z 19011KT 27/16 A2999 RMK A01 T02650159  RH  052%=      5-min Rain = 0
KME1 050925Z 19010KT 27/16 A2999 RMK A01 T02650159  RH  052%=      5-min Rain = 0
KME1 050926Z 19013KT 26/16 A2999 RMK A01 T02640159  RH  052%=      5-min Rain = 0
KME1 050927Z 18012G17KT 26/16 A2999 RMK A01 T02640159  RH  052%=      5-min Rain = 0
KME1 050928Z 18011KT 26/16 A2999 RMK A01 T02640159  RH  052%=      5-min Rain = 0
KME1 050929Z 19010KT 26/16 A30 RMK A01 T02640159  RH  052%=      5-min Rain = 0
KME1 050930Z 18012KT 26/16 A2999 RMK A01 T02640159  RH  053%=      5-min Rain = 0
KME1 050931Z 18010KT 26/16 A30 RMK A01 T02640159  RH  053%=      5-min Rain = 0
KME1 050932Z 18011KT 26/16 A30 RMK A01 T02640159  RH  053%=      5-min Rain = 0
KME1 050933Z 19012KT 26/16 A30 RMK A01 T02640159  RH  053%=      5-min Rain = 0
KME1 050934Z 19011KT 26/16 A30 RMK A01 T02640160  RH  053%=      5-min Rain = 0
KME1 050935Z 18012KT 26/16 A30 RMK A01 T02640160  RH  053%=      5-min Rain = 0
KME1 050936Z 19010G16KT 26/16 A30 RMK A01 T02630159  RH  053%=      5-min Rain = 0
KME1 050937Z 19013KT 26/16 A30 RMK A01 T02630159  RH  053%=      5-min Rain = 0
KME1 050938Z 19012KT 26/16 A2999 RMK A01 T02630159  RH  053%=      5-min Rain = 0
KME1 050939Z 18012KT 26/16 A2999 RMK A01 T02630160  RH  053%=      5-min Rain = 0
KME1 050940Z 18012KT 26/16 A2999 RMK A01 T02630159  RH  053%=      5-min Rain = 0
KME1 050941Z 18012KT 26/16 A2999 RMK A01 T02630160  RH  053%=      5-min Rain = 0
KME1 050942Z 19008KT 26/16 A30 RMK A01 T02630160  RH  053%=      5-min Rain = 0
KME1 050943Z 19010KT 26/16 A30 RMK A01 T02620159  RH  053%=      5-min Rain = 0
KME1 050944Z 19010KT 26/16 A30 RMK A01 T02620160  RH  053%=      5-min Rain = 0
KME1 050945Z 19010KT 26/16 A30 RMK A01 T02610159  RH  053%=      5-min Rain = 0
KME1 050946Z 19009KT 26/16 A30 RMK A01 T02610159  RH  053%=      5-min Rain = 0
KME1 050947Z 19009KT 26/16 A30 RMK A01 T02610159  RH  053%=      5-min Rain = 0
KME1 050948Z 19011KT 26/16 A30 RMK A01 T02610160  RH  054%=      5-min Rain = 0
KME1 050949Z 19010KT 26/16 A30 RMK A01 T02610160  RH  054%=      5-min Rain = 0
KME1 050950Z 19010KT 26/16 A30 RMK A01 T02600159  RH  054%=      5-min Rain = 0
KME1 050951Z 18009KT 26/16 A30 RMK A01 T02600160  RH  054%=      5-min Rain = 0
KME1 050952Z 19009KT 26/16 A30 RMK A01 T02600160  RH  054%=      5-min Rain = 0
KME1 050953Z 19010KT 26/16 A30 RMK A01 T02600160  RH  054%=      5-min Rain = 0
KME1 050954Z 19010KT 26/16 A30 RMK A01 T02590160  RH  054%=      5-min Rain = 0
KME1 050955Z 19010KT 26/16 A30 RMK A01 T02590160  RH  054%=      5-min Rain = 0
KME1 050956Z 19009KT 26/16 A30 RMK A01 T02590160  RH  054%=      5-min Rain = 0
KME1 050957Z 19010KT 26/16 A30 RMK A01 T02600160  RH  054%=      5-min Rain = 0
KME1 050958Z 19011KT 26/16 A30 RMK A01 T02590160  RH  054%=      5-min Rain = 0
KME1 050959Z 19009KT 26/16 A30 RMK A01 T02590160  RH  054%=      5-min Rain = 0
KME1 051000Z 19008KT 26/16 A30 RMK A01 T02590160  RH  055%=      5-min Rain = 0
KME1 051001Z 19007G12KT 26/16 A30 RMK A01 T02580160  RH  055%=      5-min Rain = 0
KME1 051002Z 19008KT 26/16 A30 RMK A01 T02570160  RH  055%=      5-min Rain = 0
KME1 051003Z 19009KT 26/16 A30 RMK A01 T02570160  RH  055%=      5-min Rain = 0
KME1 051004Z 19011KT 26/16 A30 RMK A01 T02570160  RH  055%=      5-min Rain = 0
KME1 051005Z 19008KT 26/16 A30 RMK A01 T02570160  RH  055%=      5-min Rain = 0
KME1 051006Z 19010G15KT 26/16 A30 RMK A01 T02580161  RH  055%=      5-min Rain = 0
KME1 051007Z 19011KT 26/16 A30 RMK A01 T02570160  RH  055%=      5-min Rain = 0
KME1 051008Z 18010KT 26/16 A30 RMK A01 T02580161  RH  055%=      5-min Rain = 0
KME1 051009Z 19010KT 26/16 A30 RMK A01 T02570161  RH  055%=      5-min Rain = 0
KME1 051010Z 18010KT 26/16 A30 RMK A01 T02570161  RH  055%=      5-min Rain = 0
KME1 051011Z 19011KT 26/16 A30 RMK A01 T02570161  RH  055%=      5-min Rain = 0
KME1 051012Z 18009KT 26/16 A30 RMK A01 T02570161  RH  056%=      5-min Rain = 0
KME1 051013Z 19009KT 26/16 A30 RMK A01 T02560161  RH  056%=      5-min Rain = 0
KME1 051014Z 19009KT 26/16 A30 RMK A01 T02560161  RH  056%=      5-min Rain = 0
KME1 051015Z 19008KT 26/16 A30 RMK A01 T02560161  RH  056%=      5-min Rain = 0
KME1 051016Z 19009KT 26/16 A30 RMK A01 T02560161  RH  056%=      5-min Rain = 0
KME1 051017Z 19008KT 26/16 A30 RMK A01 T02550161  RH  056%=      5-min Rain = 0
KME1 051018Z 19008KT 26/16 A30 RMK A01 T02550161  RH  056%=      5-min Rain = 0
KME1 051019Z 19009KT 26/16 A30 RMK A01 T02550162  RH  056%=      5-min Rain = 0
KME1 051020Z 18009KT 26/16 A30 RMK A01 T02550161  RH  056%=      5-min Rain = 0
KME1 051021Z 18010KT 26/16 A30 RMK A01 T02550161  RH  056%=      5-min Rain = 0
KME1 051022Z 19010KT 26/16 A30 RMK A01 T02550162  RH  056%=      5-min Rain = 0
KME1 051023Z 19011KT 26/16 A30 RMK A01 T02550162  RH  056%=      5-min Rain = 0
KME1 051024Z 19011KT 26/16 A30 RMK A01 T02550162  RH  056%=      5-min Rain = 0
KME1 051025Z 19009KT 26/16 A30 RMK A01 T02550162  RH  056%=      5-min Rain = 0
KME1 051026Z 19010KT 26/16 A30 RMK A01 T02550162  RH  056%=      5-min Rain = 0
KME1 051027Z 19010KT 26/16 A30 RMK A01 T02550162  RH  056%=      5-min Rain = 0
KME1 051028Z 18009KT 26/16 A30 RMK A01 T02550163  RH  056%=      5-min Rain = 0
KME1 051029Z 19008KT 26/16 A30 RMK A01 T02550162  RH  056%=      5-min Rain = 0
KME1 051030Z 19009KT 25/16 A30 RMK A01 T02540162  RH  057%=      5-min Rain = 0
KME1 051031Z 19011KT 25/16 A30 RMK A01 T02540162  RH  057%=      5-min Rain = 0
KME1 051032Z 18010KT 25/16 A30 RMK A01 T02540162  RH  057%=      5-min Rain = 0
KME1 051033Z 18007KT 25/16 A30 RMK A01 T02540162  RH  057%=      5-min Rain = 0
KME1 051034Z 19010KT 25/16 A3001 RMK A01 T02540162  RH  057%=      5-min Rain = 0
KME1 051035Z 19010KT 25/16 A3001 RMK A01 T02530162  RH  057%=      5-min Rain = 0
KME1 051036Z 18008KT 25/16 A3001 RMK A01 T02530162  RH  057%=      5-min Rain = 0
KME1 051037Z 19007KT 25/16 A3001 RMK A01 T02530162  RH  057%=      5-min Rain = 0
KME1 051038Z 18008KT 25/16 A30 RMK A01 T02530163  RH  057%=      5-min Rain = 0
KME1 051039Z 19008KT 25/16 A30 RMK A01 T02530163  RH  057%=      5-min Rain = 0
KME1 051040Z 19008KT 25/16 A30 RMK A01 T02520162  RH  057%=      5-min Rain = 0
KME1 051041Z 18009KT 25/16 A30 RMK A01 T02520162  RH  058%=      5-min Rain = 0
KME1 051042Z 19009KT 25/16 A30 RMK A01 T02510162  RH  058%=      5-min Rain = 0
KME1 051043Z 19008KT 25/16 A30 RMK A01 T02510162  RH  058%=      5-min Rain = 0
KME1 051044Z 19009KT 25/16 A30 RMK A01 T02510162  RH  058%=      5-min Rain = 0
KME1 051045Z 19011KT 25/16 A30 RMK A01 T02510162  RH  058%=      5-min Rain = 0
KME1 051046Z 19009KT 25/16 A30 RMK A01 T02510163  RH  058%=      5-min Rain = 0
KME1 051047Z 19008KT 25/16 A30 RMK A01 T02510162  RH  058%=      5-min Rain = 0
KME1 051048Z 19009KT 25/16 A30 RMK A01 T02510163  RH  058%=      5-min Rain = 0
KME1 051049Z 18010KT 25/16 A3001 RMK A01 T02510163  RH  058%=      5-min Rain = 0
KME1 051050Z 19010KT 25/16 A3001 RMK A01 T02510163  RH  058%=      5-min Rain = 0
KME1 051051Z 19009KT 25/16 A3001 RMK A01 T02510163  RH  058%=      5-min Rain = 0
KME1 051052Z 18011KT 25/16 A3001 RMK A01 T02510163  RH  058%=      5-min Rain = 0
KME1 051053Z 19009KT 25/16 A3001 RMK A01 T02510163  RH  058%=      5-min Rain = 0
KME1 051054Z 19008KT 25/16 A3001 RMK A01 T02510163  RH  058%=      5-min Rain = 0
KME1 051055Z 19010KT 25/16 A3001 RMK A01 T02510163  RH  058%=      5-min Rain = 0
KME1 051056Z 19010KT 25/16 A3001 RMK A01 T02510164  RH  058%=      5-min Rain = 0
KME1 051057Z 18010KT 25/16 A3001 RMK A01 T02500163  RH  058%=      5-min Rain = 0
KME1 051058Z 18010KT 25/16 A3001 RMK A01 T02500163  RH  058%=      5-min Rain = 0
KME1 051059Z 19010KT 25/16 A3001 RMK A01 T02500163  RH  058%=      5-min Rain = 0
KME1 051100Z 19009KT 25/16 A3001 RMK A01 T02500164  RH  059%=      5-min Rain = 0
KME1 051101Z 18010KT 25/16 A3001 RMK A01 T02500164  RH  059%=      5-min Rain = 0
KME1 051102Z 18010KT 25/16 A3001 RMK A01 T02500164  RH  059%=      5-min Rain = 0
KME1 051103Z 18011KT 25/16 A3001 RMK A01 T02500164  RH  059%=      5-min Rain = 0
KME1 051104Z 18010KT 25/16 A3001 RMK A01 T02500164  RH  059%=      5-min Rain = 0
KME1 051105Z 18011KT 25/16 A3001 RMK A01 T02500164  RH  059%=      5-min Rain = 0
KME1 051106Z 19010KT 25/16 A3001 RMK A01 T02500164  RH  059%=      5-min Rain = 0
KME1 051107Z 18012KT 25/16 A3001 RMK A01 T02500164  RH  059%=      5-min Rain = 0
KME1 051108Z 18011KT 25/16 A3001 RMK A01 T02500164  RH  059%=      5-min Rain = 0
KME1 051109Z 19011KT 25/17 A3001 RMK A01 T02500165  RH  059%=      5-min Rain = 0
KME1 051110Z 18009KT 25/16 A3001 RMK A01 T02500164  RH  059%=      5-min Rain = 0
KME1 051111Z 19009KT 25/16 A3001 RMK A01 T02490164  RH  059%=      5-min Rain = 0
KME1 051112Z 18010KT 25/17 A30 RMK A01 T02490165  RH  059%=      5-min Rain = 0
KME1 051113Z 19011KT 25/16 A30 RMK A01 T02480164  RH  060%=      5-min Rain = 0
KME1 051114Z 19009KT 25/17 A30 RMK A01 T02490165  RH  060%=      5-min Rain = 0
KME1 051115Z 18012KT 25/17 A30 RMK A01 T02480165  RH  060%=      5-min Rain = 0
KME1 051116Z 19010KT 25/17 A30 RMK A01 T02480165  RH  060%=      5-min Rain = 0
KME1 051117Z 18011KT 25/17 A30 RMK A01 T02490165  RH  060%=      5-min Rain = 0
KME1 051118Z 19012KT 25/17 A30 RMK A01 T02490165  RH  060%=      5-min Rain = 0
KME1 051119Z 18011KT 25/17 A30 RMK A01 T02490165  RH  060%=      5-min Rain = 0
KME1 051120Z 18011G16KT 25/17 A30 RMK A01 T02490165  RH  060%=      5-min Rain = 0
KME1 051121Z 18011KT 25/17 A30 RMK A01 T02490165  RH  060%=      5-min Rain = 0
KME1 051122Z 19011KT 25/17 A30 RMK A01 T02490165  RH  060%=      5-min Rain = 0
KME1 051123Z 19010KT 25/17 A30 RMK A01 T02480165  RH  060%=      5-min Rain = 0
KME1 051124Z 19011KT 25/17 A30 RMK A01 T02480165  RH  060%=      5-min Rain = 0
KME1 051125Z 19008KT 25/17 A3001 RMK A01 T02480165  RH  060%=      5-min Rain = 0
KME1 051126Z 19009KT 25/17 A3001 RMK A01 T02480165  RH  060%=      5-min Rain = 0
KME1 051127Z 19011KT 25/17 A3001 RMK A01 T02480166  RH  060%=      5-min Rain = 0
KME1 051128Z 19011KT 25/17 A3001 RMK A01 T02470165  RH  060%=      5-min Rain = 0
KME1 051129Z 19012KT 25/17 A3001 RMK A01 T02480166  RH  060%=      5-min Rain = 0
KME1 051130Z 18011KT 25/17 A3001 RMK A01 T02470165  RH  060%=      5-min Rain = 0
KME1 051131Z 18010KT 25/17 A3001 RMK A01 T02470165  RH  060%=      5-min Rain = 0
KME1 051132Z 18011KT 25/17 A3001 RMK A01 T02480166  RH  060%=      5-min Rain = 0
KME1 051133Z 19012KT 25/17 A3001 RMK A01 T02470166  RH  060%=      5-min Rain = 0
KME1 051134Z 18010KT 25/17 A3001 RMK A01 T02470165  RH  060%=      5-min Rain = 0
KME1 051135Z 19010KT 25/17 A3001 RMK A01 T02480166  RH  060%=      5-min Rain = 0
KME1 051136Z 18008KT 25/17 A3001 RMK A01 T02470166  RH  061%=      5-min Rain = 0
KME1 051137Z 19012KT 25/17 A3001 RMK A01 T02470166  RH  061%=      5-min Rain = 0
KME1 051138Z 19011KT 25/17 A3001 RMK A01 T02470166  RH  061%=      5-min Rain = 0
KME1 051139Z 18009KT 25/17 A3001 RMK A01 T02470166  RH  061%=      5-min Rain = 0
KME1 051140Z 19009KT 25/17 A3001 RMK A01 T02470166  RH  061%=      5-min Rain = 0
KME1 051141Z 19010G17KT 25/17 A3001 RMK A01 T02470166  RH  061%=      5-min Rain = 0
KME1 051142Z 18012KT 25/17 A3001 RMK A01 T02470166  RH  061%=      5-min Rain = 0
KME1 051143Z 19009KT 25/17 A3001 RMK A01 T02470166  RH  061%=      5-min Rain = 0
KME1 051144Z 18009KT 25/17 A3001 RMK A01 T02470166  RH  061%=      5-min Rain = 0
KME1 051145Z 19010KT 25/17 A3001 RMK A01 T02470166  RH  061%=      5-min Rain = 0
KME1 051146Z 18009KT 25/17 A3001 RMK A01 T02460167  RH  061%=      5-min Rain = 0
KME1 051147Z 19011KT 25/17 A3001 RMK A01 T02460166  RH  061%=      5-min Rain = 0
KME1 051148Z 19012KT 25/17 A3001 RMK A01 T02460166  RH  061%=      5-min Rain = 0
KME1 051149Z 18010KT 25/17 A3001 RMK A01 T02460167  RH  061%=      5-min Rain = 0
KME1 051150Z 19011KT 25/17 A3001 RMK A01 T02460166  RH  061%=      5-min Rain = 0
KME1 051151Z 19010KT 25/17 A3001 RMK A01 T02460167  RH  061%=      5-min Rain = 0
KME1 051152Z 18012KT 25/17 A3001 RMK A01 T02460167  RH  061%=      5-min Rain = 0
KME1 051153Z 19009KT 25/17 A3001 RMK A01 T02460167  RH  061%=      5-min Rain = 0
KME1 051154Z 19008KT 25/17 A3001 RMK A01 T02460167  RH  061%=      5-min Rain = 0
KME1 051155Z 19010KT 25/17 A3001 RMK A01 T02450167  RH  061%=      5-min Rain = 0
KME1 051156Z 19010KT 25/17 A3001 RMK A01 T02450167  RH  062%=      5-min Rain = 0
KME1 051157Z 19008KT 25/17 A3001 RMK A01 T02460167  RH  062%=      5-min Rain = 0
KME1 051158Z 18011KT 25/17 A3001 RMK A01 T02450167  RH  062%=      5-min Rain = 0
KME1 051159Z 18009KT 25/17 A3001 RMK A01 T02450167  RH  062%=      5-min Rain = 0
KME1 051200Z 19009KT 25/17 A3001 RMK A01 T02450167  RH  062%=      5-min Rain = 0
KME1 051201Z 19010KT 25/17 A3001 RMK A01 T02450167  RH  062%=      5-min Rain = 0
KME1 051202Z 18010KT 25/17 A3001 RMK A01 T02450167  RH  062%=      5-min Rain = 0
KME1 051203Z 18010KT 25/17 A3001 RMK A01 T02450167  RH  062%=      5-min Rain = 0
KME1 051204Z 19009KT 25/17 A3001 RMK A01 T02450167  RH  062%=      5-min Rain = 0
KME1 051205Z 18009KT 25/17 A3001 RMK A01 T02450167  RH  062%=      5-min Rain = 0
KME1 051206Z 18010KT 24/17 A3001 RMK A01 T02440167  RH  062%=      5-min Rain = 0
KME1 051207Z 18011KT 24/17 A3001 RMK A01 T02440167  RH  062%=      5-min Rain = 0
KME1 051208Z 19009KT 24/17 A3001 RMK A01 T02440167  RH  062%=      5-min Rain = 0
KME1 051209Z 19009KT 24/17 A3001 RMK A01 T02440167  RH  062%=      5-min Rain = 0
KME1 051210Z 19009KT 24/17 A3002 RMK A01 T02440167  RH  062%=      5-min Rain = 0
KME1 051211Z 19009KT 24/17 A3002 RMK A01 T02440167  RH  062%=      5-min Rain = 0
KME1 051212Z 19009KT 24/17 A3002 RMK A01 T02440167  RH  062%=      5-min Rain = 0
KME1 051213Z 19008KT 24/17 A3002 RMK A01 T02440168  RH  062%=      5-min Rain = 0
KME1 051214Z 19008KT 24/17 A3002 RMK A01 T02440168  RH  062%=      5-min Rain = 0
KME1 051215Z 19009KT 24/17 A3002 RMK A01 T02440168  RH  063%=      5-min Rain = 0
KME1 051216Z 19010KT 24/17 A3002 RMK A01 T02430167  RH  063%=      5-min Rain = 0
KME1 051217Z 19008KT 24/17 A3002 RMK A01 T02430168  RH  063%=      5-min Rain = 0
KME1 051218Z 19007KT 24/17 A3002 RMK A01 T02430168  RH  063%=      5-min Rain = 0
KME1 051219Z 18010KT 24/17 A3002 RMK A01 T02430168  RH  063%=      5-min Rain = 0
KME1 051220Z 19008KT 24/17 A3002 RMK A01 T02430167  RH  063%=      5-min Rain = 0
KME1 051221Z 18008KT 24/17 A3002 RMK A01 T02440168  RH  063%=      5-min Rain = 0
KME1 051222Z 18008KT 24/17 A3002 RMK A01 T02430168  RH  063%=      5-min Rain = 0
KME1 051223Z 18009KT 24/17 A3002 RMK A01 T02430168  RH  063%=      5-min Rain = 0
KME1 051224Z 18009KT 24/17 A3002 RMK A01 T02430168  RH  063%=      5-min Rain = 0
KME1 051225Z 19006KT 24/17 A3002 RMK A01 T02430168  RH  063%=      5-min Rain = 0
KME1 051226Z 18008KT 24/17 A3002 RMK A01 T02430168  RH  063%=      5-min Rain = 0
KME1 051227Z 18009KT 24/17 A3002 RMK A01 T02430169  RH  063%=      5-min Rain = 0
KME1 051228Z 18011KT 24/17 A3002 RMK A01 T02430168  RH  063%=      5-min Rain = 0
KME1 051229Z 18009KT 24/17 A3002 RMK A01 T02440169  RH  063%=      5-min Rain = 0
KME1 051230Z 18008KT 24/17 A3002 RMK A01 T02440168  RH  063%=      5-min Rain = 0
KME1 051231Z 18008G13KT 24/17 A3003 RMK A01 T02440168  RH  063%=      5-min Rain = 0
KME1 051232Z 18010KT 24/17 A3003 RMK A01 T02440168  RH  063%=      5-min Rain = 0
KME1 051233Z 18011KT 24/17 A3003 RMK A01 T02440169  RH  063%=      5-min Rain = 0
KME1 051234Z 18009KT 24/17 A3003 RMK A01 T02440169  RH  063%=      5-min Rain = 0
KME1 051235Z 18009KT 25/17 A3003 RMK A01 T02450169  RH  063%=      5-min Rain = 0
KME1 051236Z 18008KT 25/17 A3003 RMK A01 T02450169  RH  063%=      5-min Rain = 0
KME1 051237Z 19009G14KT 25/17 A3003 RMK A01 T02450169  RH  063%=      5-min Rain = 0
KME1 051238Z 19007KT 25/17 A3003 RMK A01 T02450169  RH  063%=      5-min Rain = 0
KME1 051239Z 18008KT 25/17 A3003 RMK A01 T02450169  RH  063%=      5-min Rain = 0
KME1 051240Z 18009KT 25/17 A3003 RMK A01 T02450169  RH  063%=      5-min Rain = 0
KME1 051241Z 18009KT 25/17 A3003 RMK A01 T02460170  RH  063%=      5-min Rain = 0
KME1 051242Z 19010KT 25/17 A3003 RMK A01 T02460170  RH  062%=      5-min Rain = 0
KME1 051243Z 19009KT 25/17 A3003 RMK A01 T02460170  RH  062%=      5-min Rain = 0
KME1 051244Z 19009KT 25/17 A3003 RMK A01 T02460170  RH  062%=      5-min Rain = 0
KME1 051245Z 18011KT 25/17 A3003 RMK A01 T02470170  RH  062%=      5-min Rain = 0
KME1 051246Z 18008KT 25/17 A3003 RMK A01 T02470170  RH  062%=      5-min Rain = 0
KME1 051247Z 19011KT 25/17 A3003 RMK A01 T02470170  RH  062%=      5-min Rain = 0
KME1 051248Z 19009KT 25/17 A3003 RMK A01 T02480171  RH  062%=      5-min Rain = 0
KME1 051249Z 18009KT 25/17 A3003 RMK A01 T02480170  RH  062%=      5-min Rain = 0
KME1 051250Z 19010KT 25/17 A3003 RMK A01 T02480171  RH  062%=      5-min Rain = 0
KME1 051251Z 18012KT 25/17 A3003 RMK A01 T02480171  RH  062%=      5-min Rain = 0
KME1 051252Z 19009KT 25/17 A3003 RMK A01 T02490171  RH  062%=      5-min Rain = 0
KME1 051253Z 19007KT 25/17 A3003 RMK A01 T02490171  RH  062%=      5-min Rain = 0
KME1 051254Z 19010KT 25/17 A3003 RMK A01 T02490171  RH  062%=      5-min Rain = 0
KME1 051255Z 18010KT 25/17 A3003 RMK A01 T02500171  RH  062%=      5-min Rain = 0
KME1 051256Z 19009KT 25/17 A3003 RMK A01 T02500171  RH  062%=      5-min Rain = 0
KME1 051257Z 19010KT 25/17 A3003 RMK A01 T02500171  RH  062%=      5-min Rain = 0
KME1 051258Z 19009KT 25/17 A3003 RMK A01 T02500171  RH  061%=      5-min Rain = 0
KME1 051259Z 19009KT 25/17 A3003 RMK A01 T02510171  RH  061%=      5-min Rain = 0
KME1 051300Z 19012G17KT 25/17 A3003 RMK A01 T02510172  RH  061%=      5-min Rain = 0
KME1 051301Z 19012KT 25/17 A3003 RMK A01 T02510171  RH  061%=      5-min Rain = 0
KME1 051302Z 19010G15KT 25/17 A3003 RMK A01 T02520172  RH  061%=      5-min Rain = 0
KME1 051303Z 19012G17KT 25/17 A3003 RMK A01 T02520172  RH  061%=      5-min Rain = 0
KME1 051304Z 19011KT 25/17 A3003 RMK A01 T02530172  RH  061%=      5-min Rain = 0
KME1 051305Z 19011KT 25/17 A3003 RMK A01 T02530172  RH  061%=      5-min Rain = 0
KME1 051306Z 18012KT 25/17 A3003 RMK A01 T02530172  RH  061%=      5-min Rain = 0
KME1 051307Z 18012G17KT 25/17 A3003 RMK A01 T02540172  RH  061%=      5-min Rain = 0
KME1 051308Z 19011KT 25/17 A3003 RMK A01 T02540172  RH  061%=      5-min Rain = 0
KME1 051309Z 19015KT 25/17 A3003 RMK A01 T02540172  RH  060%=      5-min Rain = 0
KME1 051310Z 19011KT 26/17 A3003 RMK A01 T02550172  RH  060%=      5-min Rain = 0
KME1 051311Z 19012KT 26/17 A3003 RMK A01 T02550173  RH  060%=      5-min Rain = 0
KME1 051312Z 18014G19KT 26/17 A3003 RMK A01 T02550172  RH  060%=      5-min Rain = 0
KME1 051313Z 19013KT 26/17 A3003 RMK A01 T02560173  RH  060%=      5-min Rain = 0
KME1 051314Z 18012KT 26/17 A3003 RMK A01 T02560173  RH  060%=      5-min Rain = 0
KME1 051315Z 19015KT 26/17 A3003 RMK A01 T02570173  RH  060%=      5-min Rain = 0
KME1 051316Z 19013KT 26/17 A3003 RMK A01 T02570173  RH  060%=      5-min Rain = 0
KME1 051317Z 18012KT 26/17 A3003 RMK A01 T02570173  RH  060%=      5-min Rain = 0
KME1 051318Z 19012KT 26/17 A3003 RMK A01 T02580173  RH  060%=      5-min Rain = 0
KME1 051319Z 19012KT 26/17 A3003 RMK A01 T02580173  RH  059%=      5-min Rain = 0
KME1 051320Z 19012G17KT 26/17 A3003 RMK A01 T02590174  RH  059%=      5-min Rain = 0
KME1 051321Z 19015KT 26/17 A3003 RMK A01 T02590174  RH  059%=      5-min Rain = 0
KME1 051322Z 19013KT 26/17 A3003 RMK A01 T02600174  RH  059%=      5-min Rain = 0
KME1 051323Z 19011G16KT 26/17 A3003 RMK A01 T02600174  RH  059%=      5-min Rain = 0
KME1 051324Z 19012G18KT 26/17 A3004 RMK A01 T02600174  RH  059%=      5-min Rain = 0
KME1 051325Z 19013G18KT 26/17 A3004 RMK A01 T02610174  RH  059%=      5-min Rain = 0
KME1 051326Z 18011KT 26/17 A3004 RMK A01 T02610174  RH  059%=      5-min Rain = 0
KME1 051327Z 18013KT 26/17 A3004 RMK A01 T02610174  RH  059%=      5-min Rain = 0
KME1 051328Z 19012G17KT 26/17 A3004 RMK A01 T02610174  RH  059%=      5-min Rain = 0
KME1 051329Z 19012KT 26/17 A3004 RMK A01 T02620174  RH  058%=      5-min Rain = 0
KME1 051330Z 18010KT 26/18 A3004 RMK A01 T02630175  RH  058%=      5-min Rain = 0
KME1 051331Z 19013KT 26/18 A3004 RMK A01 T02630175  RH  058%=      5-min Rain = 0
KME1 051332Z 18013KT 26/18 A3004 RMK A01 T02640175  RH  058%=      5-min Rain = 0
KME1 051333Z 19008KT 26/18 A3004 RMK A01 T02640175  RH  058%=      5-min Rain = 0
KME1 051334Z 19011KT 27/18 A3004 RMK A01 T02650176  RH  058%=      5-min Rain = 0
KME1 051335Z 19012G17KT 27/18 A3004 RMK A01 T02660176  RH  058%=      5-min Rain = 0
KME1 051336Z 18015KT 27/18 A3004 RMK A01 T02660176  RH  058%=      5-min Rain = 0
KME1 051337Z 19014KT 27/18 A3004 RMK A01 T02660175  RH  058%=      5-min Rain = 0
KME1 051338Z 19012KT 27/18 A3004 RMK A01 T02660176  RH  058%=      5-min Rain = 0
KME1 051339Z 19014KT 27/18 A3004 RMK A01 T02660175  RH  057%=      5-min Rain = 0
KME1 051340Z 18011KT 27/18 A3004 RMK A01 T02670175  RH  057%=      5-min Rain = 0
KME1 051341Z 18012G18KT 27/18 A3004 RMK A01 T02670176  RH  057%=      5-min Rain = 0
KME1 051342Z 19015KT 27/18 A3004 RMK A01 T02680175  RH  057%=      5-min Rain = 0
KME1 051343Z 19012KT 27/18 A3004 RMK A01 T02680175  RH  057%=      5-min Rain = 0
KME1 051344Z 18011KT 27/18 A3004 RMK A01 T02680176  RH  057%=      5-min Rain = 0
KME1 051345Z 19009KT 27/18 A3004 RMK A01 T02680176  RH  057%=      5-min Rain = 0
KME1 051346Z 19011G17KT 27/18 A3005 RMK A01 T02700176  RH  057%=      5-min Rain = 0
KME1 051347Z 19014G20KT 27/18 A3005 RMK A01 T02710176  RH  056%=      5-min Rain = 0
KME1 051348Z 20010G15KT 27/18 A3005 RMK A01 T02710176  RH  056%=      5-min Rain = 0
KME1 051349Z 19011KT 27/18 A3005 RMK A01 T02710176  RH  056%=      5-min Rain = 0
KME1 051350Z 19008KT 27/18 A3005 RMK A01 T02720177  RH  056%=      5-min Rain = 0
KME1 051351Z 19006G11KT 27/18 A3005 RMK A01 T02730177  RH  056%=      5-min Rain = 0
KME1 051352Z 18008KT 27/18 A3005 RMK A01 T02740177  RH  055%=      5-min Rain = 0
KME1 051353Z 18010KT 28/18 A3005 RMK A01 T02750177  RH  055%=      5-min Rain = 0
KME1 051354Z 18011KT 28/18 A3005 RMK A01 T02750177  RH  055%=      5-min Rain = 0
KME1 051355Z 18011KT 28/18 A3005 RMK A01 T02750177  RH  055%=      5-min Rain = 0
KME1 051356Z 18014KT 28/18 A3005 RMK A01 T02750176  RH  055%=      5-min Rain = 0
KME1 051357Z 19013KT 27/18 A3005 RMK A01 T02740176  RH  055%=      5-min Rain = 0
KME1 051358Z 19013KT 27/18 A3005 RMK A01 T02730176  RH  055%=      5-min Rain = 0
KME1 051359Z 19014KT 27/18 A3005 RMK A01 T02730175  RH  055%=      5-min Rain = 0
KME1 051400Z 19014KT 27/18 A3005 RMK A01 T02740175  RH  055%=      5-min Rain = 0
KME1 051401Z 19015KT 28/18 A3005 RMK A01 T02750176  RH  055%=      5-min Rain = 0
KME1 051402Z 19015KT 28/18 A3005 RMK A01 T02760176  RH  054%=      5-min Rain = 0
KME1 051403Z 19012KT 28/18 A3005 RMK A01 T02760176  RH  054%=      5-min Rain = 0
KME1 051404Z 19013G19KT 28/18 A3005 RMK A01 T02760176  RH  054%=      5-min Rain = 0
KME1 051405Z 18012KT 28/18 A3005 RMK A01 T02770176  RH  054%=      5-min Rain = 0
KME1 051406Z 19010KT 28/18 A3005 RMK A01 T02780176  RH  054%=      5-min Rain = 0
KME1 051407Z 19011KT 28/18 A3005 RMK A01 T02790176  RH  054%=      5-min Rain = 0
KME1 051408Z 19013KT 28/18 A3005 RMK A01 T02800175  RH  053%=      5-min Rain = 0
KME1 051409Z 19012KT 28/18 A3005 RMK A01 T02800175  RH  053%=      5-min Rain = 0
KME1 051410Z 19009G14KT 28/18 A3005 RMK A01 T02800175  RH  053%=      5-min Rain = 0
KME1 051411Z 19011KT 28/18 A3005 RMK A01 T02810175  RH  053%=      5-min Rain = 0
KME1 051412Z 19009KT 28/18 A3005 RMK A01 T02820176  RH  052%=      5-min Rain = 0
KME1 051413Z 19017KT 28/18 A3005 RMK A01 T02840175  RH  052%=      5-min Rain = 0
KME1 051414Z 20015KT 28/17 A3005 RMK A01 T02820173  RH  052%=      5-min Rain = 0
KME1 051415Z 19013KT 28/17 A3005 RMK A01 T02810173  RH  052%=      5-min Rain = 0
KME1 051416Z 20012KT 28/17 A3005 RMK A01 T02810174  RH  052%=      5-min Rain = 0
KME1 051417Z 20015G21KT 28/17 A3005 RMK A01 T02820173  RH  052%=      5-min Rain = 0
KME1 051418Z 19015G20KT 28/17 A3005 RMK A01 T02820172  RH  051%=      5-min Rain = 0
KME1 051419Z 20017KT 28/17 A3005 RMK A01 T02820172  RH  051%=      5-min Rain = 0
KME1 051420Z 20015G21KT 28/17 A3005 RMK A01 T02820172  RH  051%=      5-min Rain = 0
KME1 051421Z 19011KT 28/17 A3005 RMK A01 T02810173  RH  052%=      5-min Rain = 0
KME1 051422Z 20014KT 28/17 A3005 RMK A01 T02830173  RH  051%=      5-min Rain = 0
KME1 051423Z 19014KT 28/17 A3005 RMK A01 T02830172  RH  051%=      5-min Rain = 0
KME1 051424Z 19014G21KT 28/17 A3005 RMK A01 T02840172  RH  051%=      5-min Rain = 0
KME1 051425Z 20016G21KT 29/17 A3005 RMK A01 T02850171  RH  050%=      5-min Rain = 0
KME1 051426Z 19013G23KT 29/17 A3005 RMK A01 T02860172  RH  050%=      5-min Rain = 0
KME1 051427Z 18016KT 29/17 A3005 RMK A01 T02870171  RH  050%=      5-min Rain = 0
KME1 051428Z 18016KT 29/17 A3005 RMK A01 T02870171  RH  049%=      5-min Rain = 0
KME1 051429Z 19014G19KT 29/17 A3005 RMK A01 T02860170  RH  049%=      5-min Rain = 0
KME1 051430Z 19017G22KT 29/17 A3005 RMK A01 T02860170  RH  049%=      5-min Rain = 0
KME1 051431Z 19014KT 29/17 A3005 RMK A01 T02870170  RH  049%=      5-min Rain = 0
KME1 051432Z 19013KT 29/17 A3005 RMK A01 T02870171  RH  049%=      5-min Rain = 0
KME1 051433Z 19017G22KT 29/17 A3005 RMK A01 T02870169  RH  049%=      5-min Rain = 0
KME1 051434Z 19017KT 29/17 A3005 RMK A01 T02870169  RH  049%=      5-min Rain = 0
KME1 051435Z 19013KT 29/17 A3005 RMK A01 T02870170  RH  049%=      5-min Rain = 0
KME1 051436Z 19013KT 29/17 A3005 RMK A01 T02870170  RH  049%=      5-min Rain = 0
KME1 051437Z 18016KT 29/17 A3005 RMK A01 T02880170  RH  049%=      5-min Rain = 0
KME1 051438Z 18012KT 29/17 A3005 RMK A01 T02890169  RH  048%=      5-min Rain = 0
KME1 051439Z 18015KT 29/17 A3005 RMK A01 T02900170  RH  048%=      5-min Rain = 0
KME1 051440Z 18011KT 29/17 A3005 RMK A01 T02900171  RH  048%=      5-min Rain = 0
KME1 051441Z 19016KT 29/17 A3005 RMK A01 T02910169  RH  048%=      5-min Rain = 0
KME1 051442Z 19018KT 29/17 A3005 RMK A01 T02910168  RH  048%=      5-min Rain = 0
KME1 051443Z 19014G20KT 29/17 A3005 RMK A01 T02900168  RH  048%=      5-min Rain = 0
KME1 051444Z 18017KT 29/17 A3005 RMK A01 T02910167  RH  047%=      5-min Rain = 0
KME1 051445Z 18014G20KT 29/17 A3005 RMK A01 T02920168  RH  047%=      5-min Rain = 0
KME1 051446Z 18017G23KT 29/17 A3005 RMK A01 T02920167  RH  047%=      5-min Rain = 0
KME1 051447Z 18015KT 29/17 A3005 RMK A01 T02920167  RH  047%=      5-min Rain = 0
KME1 051448Z 18014KT 29/17 A3005 RMK A01 T02930168  RH  047%=      5-min Rain = 0
KME1 051449Z 18016KT 29/17 A3005 RMK A01 T02940169  RH  047%=      5-min Rain = 0
KME1 051450Z 18016KT 30/17 A3005 RMK A01 T02950168  RH  046%=      5-min Rain = 0
KME1 051451Z 18016KT 30/17 A3005 RMK A01 T02950168  RH  046%=      5-min Rain = 0
KME1 051452Z 18015KT 30/17 A3005 RMK A01 T02950168  RH  046%=      5-min Rain = 0
KME1 051453Z 17016KT 30/17 A3005 RMK A01 T02960168  RH  046%=      5-min Rain = 0
KME1 051454Z 19015G21KT 30/17 A3005 RMK A01 T02980167  RH  045%=      5-min Rain = 0
KME1 051455Z 19017KT 30/17 A3005 RMK A01 T02990167  RH  045%=      5-min Rain = 0
KME1 051456Z 18016KT 30/17 A3005 RMK A01 T02990166  RH  045%=      5-min Rain = 0
KME1 051457Z 18016KT 30/17 A3005 RMK A01 T02990167  RH  045%=      5-min Rain = 0
KME1 051458Z 18015KT 30/17 A3005 RMK A01 T02990168  RH  045%=      5-min Rain = 0
KME1 051459Z 18018KT 30/17 A3005 RMK A01 T03000167  RH  045%=      5-min Rain = 0
KME1 051500Z 19014KT 30/17 A3005 RMK A01 T03000168  RH  045%=      5-min Rain = 0
KME1 051501Z 18013KT 30/17 A3005 RMK A01 T03000168  RH  045%=      5-min Rain = 0
KME1 051502Z 19016KT 30/17 A3005 RMK A01 T03010168  RH  045%=      5-min Rain = 0
KME1 051503Z 19011G16KT 30/17 A3005 RMK A01 T03020168  RH  044%=      5-min Rain = 0
KME1 051504Z 19015KT 30/17 A3004 RMK A01 T03030168  RH  044%=      5-min Rain = 0
KME1 051505Z 19014KT 30/17 A3004 RMK A01 T03040168  RH  044%=      5-min Rain = 0
KME1 051506Z 19015KT 30/17 A3004 RMK A01 T03040169  RH  044%=      5-min Rain = 0
KME1 051507Z 19014KT 30/17 A3004 RMK A01 T03040167  RH  044%=      5-min Rain = 0
KME1 051508Z 19016G22KT 30/17 A3004 RMK A01 T03040166  RH  043%=      5-min Rain = 0
KME1 051509Z 19015KT 31/17 A3004 RMK A01 T03050166  RH  043%=      5-min Rain = 0
KME1 051510Z 19014KT 31/17 A3004 RMK A01 T03060167  RH  043%=      5-min Rain = 0
KME1 051511Z 19012KT 31/17 A3004 RMK A01 T03060167  RH  043%=      5-min Rain = 0
KME1 051512Z 20013G19KT 31/17 A3004 RMK A01 T03070167  RH  043%=      5-min Rain = 0
KME1 051513Z 19015KT 31/17 A3004 RMK A01 T03080167  RH  043%=      5-min Rain = 0
KME1 051514Z 20016G21KT 31/17 A3004 RMK A01 T03080168  RH  043%=      5-min Rain = 0
KME1 051515Z 19012KT 31/17 A3004 RMK A01 T03060168  RH  043%=      5-min Rain = 0
KME1 051516Z 18009KT 31/17 A3004 RMK A01 T03070168  RH  043%=      5-min Rain = 0
KME1 051517Z 18011KT 31/17 A3004 RMK A01 T03100170  RH  043%=      5-min Rain = 0
KME1 051518Z 19014KT 31/17 A3004 RMK A01 T03120169  RH  042%=      5-min Rain = 0
KME1 051519Z 20015KT 31/17 A3004 RMK A01 T03120167  RH  042%=      5-min Rain = 0
KME1 051520Z 18013KT 31/17 A3004 RMK A01 T03110166  RH  042%=      5-min Rain = 0
KME1 051521Z 19011KT 31/17 A3004 RMK A01 T03130168  RH  042%=      5-min Rain = 0
KME1 051522Z 19013G18KT 31/17 A3004 RMK A01 T03140166  RH  041%=      5-min Rain = 0
KME1 051523Z 19013G18KT 31/16 A3004 RMK A01 T03140164  RH  041%=      5-min Rain = 0
KME1 051524Z 19010G18KT 31/17 A3004 RMK A01 T03140166  RH  041%=      5-min Rain = 0
KME1 051525Z 19012KT 32/17 A3004 RMK A01 T03160165  RH  040%=      5-min Rain = 0
KME1 051526Z 18011G18KT 32/17 A3004 RMK A01 T03170166  RH  040%=      5-min Rain = 0
KME1 051527Z 18015KT 32/17 A3004 RMK A01 T03170165  RH  040%=      5-min Rain = 0
KME1 051528Z 18011KT 31/17 A3004 RMK A01 T03140166  RH  041%=      5-min Rain = 0
KME1 051529Z 18012KT 31/17 A3004 RMK A01 T03140167  RH  041%=      5-min Rain = 0
KME1 051530Z 19012KT 32/17 A3004 RMK A01 T03160165  RH  040%=      5-min Rain = 0
KME1 051531Z 19012KT 32/16 A3004 RMK A01 T03170163  RH  039%=      5-min Rain = 0
KME1 051532Z 19011KT 32/16 A3004 RMK A01 T03180161  RH  039%=      5-min Rain = 0
KME1 051533Z 18011KT 32/16 A3005 RMK A01 T03190162  RH  039%=      5-min Rain = 0
KME1 051534Z 18010G15KT 32/16 A3005 RMK A01 T03190163  RH  039%=      5-min Rain = 0
KME1 051535Z 17013KT 32/16 A3005 RMK A01 T03200163  RH  039%=      5-min Rain = 0
KME1 051536Z 18014KT 32/16 A3005 RMK A01 T03210161  RH  038%=      5-min Rain = 0
KME1 051537Z 18016KT 32/16 A3005 RMK A01 T03210160  RH  038%=      5-min Rain = 0
KME1 051538Z 18015KT 32/16 A3005 RMK A01 T03190160  RH  038%=      5-min Rain = 0
KME1 051539Z 18015KT 32/16 A3005 RMK A01 T03180159  RH  038%=      5-min Rain = 0
KME1 051540Z 19013G18KT 32/16 A3005 RMK A01 T03170160  RH  039%=      5-min Rain = 0
KME1 051541Z 18016KT 32/16 A3005 RMK A01 T03170159  RH  039%=      5-min Rain = 0
KME1 051542Z 18013KT 32/16 A3005 RMK A01 T03170160  RH  039%=      5-min Rain = 0
KME1 051543Z 19012KT 32/16 A3005 RMK A01 T03160160  RH  039%=      5-min Rain = 0
KME1 051544Z 20012KT 32/16 A3005 RMK A01 T03180161  RH  039%=      5-min Rain = 0
KME1 051545Z 19011KT 32/16 A3005 RMK A01 T03190162  RH  039%=      5-min Rain = 0
KME1 051546Z 19011KT 32/16 A3005 RMK A01 T03200162  RH  039%=      5-min Rain = 0
KME1 051547Z 17011KT 32/16 A3005 RMK A01 T03220162  RH  038%=      5-min Rain = 0
KME1 051548Z 18014G19KT 32/16 A3005 RMK A01 T03240162  RH  038%=      5-min Rain = 0
KME1 051549Z 18015KT 33/16 A3005 RMK A01 T03260159  RH  037%=      5-min Rain = 0
KME1 051550Z 18018KT 33/16 A3005 RMK A01 T03260160  RH  037%=      5-min Rain = 0
KME1 051551Z 18017KT 32/16 A3005 RMK A01 T03230159  RH  037%=      5-min Rain = 0
KME1 051552Z 18018G23KT 32/16 A3005 RMK A01 T03190159  RH  038%=      5-min Rain = 0
KME1 051553Z 18015G21KT 32/16 A3005 RMK A01 T03180159  RH  038%=      5-min Rain = 0
KME1 051554Z 18014KT 32/16 A3005 RMK A01 T03190159  RH  038%=      5-min Rain = 0
KME1 051555Z 18016KT 32/16 A3005 RMK A01 T03200158  RH  038%=      5-min Rain = 0
KME1 051556Z 17015G20KT 32/16 A3005 RMK A01 T03220158  RH  037%=      5-min Rain = 0
KME1 051557Z 18016KT 32/16 A3005 RMK A01 T03230157  RH  037%=      5-min Rain = 0
KME1 051558Z 18011KT 32/16 A3005 RMK A01 T03240159  RH  037%=      5-min Rain = 0
KME1 051559Z 18014KT 33/16 A3005 RMK A01 T03270159  RH  037%=      5-min Rain = 0
KME1 051600Z 18020KT 33/16 A3005 RMK A01 T03260157  RH  036%=      5-min Rain = 0
KME1 051601Z 18016G21KT 32/16 A3005 RMK A01 T03220157  RH  037%=      5-min Rain = 0
KME1 051602Z 19012G17KT 32/16 A3005 RMK A01 T03230157  RH  037%=      5-min Rain = 0
KME1 051603Z 18012G17KT 33/16 A3005 RMK A01 T03260157  RH  036%=      5-min Rain = 0
KME1 051604Z 18013KT 33/16 A3005 RMK A01 T03260158  RH  036%=      5-min Rain = 0
KME1 051605Z 19016KT 33/16 A3005 RMK A01 T03260158  RH  036%=      5-min Rain = 0
KME1 051606Z 18016G21KT 33/16 A3005 RMK A01 T03260156  RH  036%=      5-min Rain = 0
KME1 051607Z 20013G18KT 33/16 A3005 RMK A01 T03250157  RH  036%=      5-min Rain = 0
KME1 051608Z 19016KT 33/16 A3005 RMK A01 T03250156  RH  036%=      5-min Rain = 0
KME1 051609Z 18013KT 33/16 A3005 RMK A01 T03250157  RH  036%=      5-min Rain = 0
KME1 051610Z 18015G20KT 33/16 A3005 RMK A01 T03260158  RH  036%=      5-min Rain = 0
KME1 051611Z 20014KT 33/16 A3005 RMK A01 T03260158  RH  036%=      5-min Rain = 0
KME1 051612Z 19017G24KT 33/16 A3005 RMK A01 T03260157  RH  036%=      5-min Rain = 0
KME1 051613Z 19014G21KT 33/16 A3005 RMK A01 T03270157  RH  036%=      5-min Rain = 0
KME1 051614Z 19014G21KT 33/16 A3005 RMK A01 T03290158  RH  036%=      5-min Rain = 0
KME1 051615Z 18015G21KT 33/16 A3005 RMK A01 T03310159  RH  036%=      5-min Rain = 0
KME1 051616Z 19018KT 33/16 A3005 RMK A01 T03310156  RH  035%=      5-min Rain = 0
KME1 051617Z 18016KT 33/16 A3004 RMK A01 T03270155  RH  036%=      5-min Rain = 0
KME1 051618Z 18017KT 33/16 A3004 RMK A01 T03260156  RH  036%=      5-min Rain = 0
KME1 051619Z 19017KT 33/16 A3004 RMK A01 T03260156  RH  036%=      5-min Rain = 0
KME1 051620Z 19017G22KT 33/16 A3004 RMK A01 T03270157  RH  036%=      5-min Rain = 0
KME1 051621Z 19015G20KT 33/16 A3004 RMK A01 T03280158  RH  036%=      5-min Rain = 0
KME1 051622Z 18014KT 33/16 A3004 RMK A01 T03290160  RH  036%=      5-min Rain = 0
KME1 051623Z 19015KT 33/16 A3004 RMK A01 T03320160  RH  036%=      5-min Rain = 0
KME1 051624Z 19013G18KT 33/16 A3004 RMK A01 T03310159  RH  036%=      5-min Rain = 0
KME1 051625Z 20017KT 33/16 A3004 RMK A01 T03310157  RH  035%=      5-min Rain = 0
KME1 051626Z 20016KT 33/16 A3004 RMK A01 T03300157  RH  036%=      5-min Rain = 0
KME1 051627Z 18015G20KT 33/16 A3004 RMK A01 T03290158  RH  036%=      5-min Rain = 0
KME1 051628Z 18016G22KT 33/16 A3003 RMK A01 T03300157  RH  036%=      5-min Rain = 0
KME1 051629Z 19014G19KT 33/16 A3003 RMK A01 T03300157  RH  035%=      5-min Rain = 0
KME1 051630Z 18015G20KT 33/16 A3003 RMK A01 T03310158  RH  035%=      5-min Rain = 0
KME1 051631Z 18018G24KT 33/16 A3003 RMK A01 T03340158  RH  035%=      5-min Rain = 0
KME1 051632Z 19019KT 33/16 A3004 RMK A01 T03340156  RH  035%=      5-min Rain = 0
KME1 051633Z 18017KT 33/16 A3004 RMK A01 T03320157  RH  035%=      5-min Rain = 0
KME1 051634Z 19013KT 33/16 A3004 RMK A01 T03310158  RH  035%=      5-min Rain = 0
KME1 051635Z 18015KT 33/16 A3004 RMK A01 T03310159  RH  036%=      5-min Rain = 0
KME1 051636Z 17015KT 33/16 A3004 RMK A01 T03330160  RH  035%=      5-min Rain = 0
KME1 051637Z 18014G19KT 34/16 A3004 RMK A01 T03350159  RH  035%=      5-min Rain = 0
KME1 051638Z 18017KT 34/16 A3004 RMK A01 T03360157  RH  034%=      5-min Rain = 0
KME1 051639Z 18014G20KT 33/16 A3004 RMK A01 T03330156  RH  035%=      5-min Rain = 0
KME1 051640Z 19014KT 33/15 A3004 RMK A01 T03330154  RH  034%=      5-min Rain = 0
KME1 051641Z 20013KT 34/16 A3004 RMK A01 T03350156  RH  034%=      5-min Rain = 0
KME1 051642Z 20010KT 34/16 A3004 RMK A01 T03360159  RH  035%=      5-min Rain = 0
KME1 051643Z 18012KT 34/16 A3004 RMK A01 T03380160  RH  034%=      5-min Rain = 0
KME1 051644Z 19011KT 34/16 A3004 RMK A01 T03380160  RH  035%=      5-min Rain = 0
KME1 051645Z 19014KT 34/16 A3004 RMK A01 T03380161  RH  035%=      5-min Rain = 0
KME1 051646Z 19014G19KT 34/16 A3004 RMK A01 T03380157  RH  034%=      5-min Rain = 0
KME1 051647Z 19013KT 34/16 A3004 RMK A01 T03360157  RH  034%=      5-min Rain = 0
KME1 051648Z 20012KT 33/16 A3004 RMK A01 T03340157  RH  035%=      5-min Rain = 0
KME1 051649Z 17012KT 34/16 A3004 RMK A01 T03350158  RH  035%=      5-min Rain = 0
KME1 051650Z 16009KT 34/16 A3004 RMK A01 T03370158  RH  034%=      5-min Rain = 0
KME1 051651Z 17012G17KT 34/16 A3004 RMK A01 T03430162  RH  034%=      5-min Rain = 0
KME1 051652Z 17013KT 34/16 A3004 RMK A01 T03440160  RH  033%=      5-min Rain = 0
KME1 051653Z 17014KT 34/16 A3004 RMK A01 T03410159  RH  034%=      5-min Rain = 0
KME1 051654Z 17011KT 34/16 A3004 RMK A01 T03400158  RH  034%=      5-min Rain = 0
KME1 051655Z 18009KT 34/16 A3005 RMK A01 T03410160  RH  034%=      5-min Rain = 0
KME1 051656Z 16012G17KT 35/16 A3005 RMK A01 T03470161  RH  033%=      5-min Rain = 0
KME1 051657Z 17013KT 35/16 A3005 RMK A01 T03490157  RH  032%=      5-min Rain = 0
KME1 051658Z 17014KT 35/16 A3005 RMK A01 T03460157  RH  032%=      5-min Rain = 0
KME1 051659Z 17015KT 34/16 A3005 RMK A01 T03430158  RH  033%=      5-min Rain = 0
KME1 051700Z 17012KT 34/16 A3005 RMK A01 T03410156  RH  033%=      5-min Rain = 0
KME1 051701Z 19012KT 34/15 A3005 RMK A01 T03400154  RH  033%=      5-min Rain = 0
KME1 051702Z 18009KT 34/16 A3005 RMK A01 T03400157  RH  033%=      5-min Rain = 0
KME1 051703Z 18011KT 34/16 A3005 RMK A01 T03400158  RH  034%=      5-min Rain = 0
KME1 051704Z 17009KT 34/16 A3005 RMK A01 T03400158  RH  034%=      5-min Rain = 0
KME1 051705Z 17012KT 34/16 A3005 RMK A01 T03410157  RH  033%=      5-min Rain = 0
KME1 051706Z 18015KT 34/16 A3005 RMK A01 T03430156  RH  033%=      5-min Rain = 0
KME1 051707Z 19010KT 34/15 A3005 RMK A01 T03420154  RH  032%=      5-min Rain = 0
KME1 051708Z 19010KT 35/16 A3005 RMK A01 T03450156  RH  032%=      5-min Rain = 0
KME1 051709Z 20008KT 34/15 A3005 RMK A01 T03430154  RH  032%=      5-min Rain = 0
KME1 051710Z 20007KT 34/15 A3005 RMK A01 T03390152  RH  033%=      5-min Rain = 0
KME1 051711Z 20010KT 34/15 A3005 RMK A01 T03380154  RH  033%=      5-min Rain = 0
KME1 051712Z 19008KT 34/16 A3005 RMK A01 T03440158  RH  033%=      5-min Rain = 0
KME1 051713Z 19009KT 35/16 A3005 RMK A01 T03510159  RH  032%=      5-min Rain = 0
KME1 051714Z 20007KT 35/16 A3006 RMK A01 T03500159  RH  032%=      5-min Rain = 0
KME1 051715Z 20008G13KT 35/16 A3005 RMK A01 T03500157  RH  032%=      5-min Rain = 0
KME1 051716Z 22007KT 35/16 A3006 RMK A01 T03490158  RH  032%=      5-min Rain = 0
KME1 051717Z 20007KT 35/16 A3006 RMK A01 T03490158  RH  032%=      5-min Rain = 0
KME1 051718Z 19010KT 35/16 A3006 RMK A01 T03480156  RH  032%=      5-min Rain = 0
KME1 051719Z 14010KT 35/15 A3006 RMK A01 T03480152  RH  031%=      5-min Rain = 0
KME1 051720Z 17011KT 35/15 A3006 RMK A01 T03480154  RH  031%=      5-min Rain = 0
KME1 051721Z 19011KT 35/16 A3006 RMK A01 T03480155  RH  032%=      5-min Rain = 0
KME1 051722Z 19010KT 35/15 A3006 RMK A01 T03480153  RH  031%=      5-min Rain = 0
KME1 051723Z 21009KT 35/15 A3006 RMK A01 T03460153  RH  032%=      5-min Rain = 0
KME1 051724Z 20010KT 35/15 A3006 RMK A01 T03480153  RH  031%=      5-min Rain = 0
KME1 051725Z 19006KT 35/15 A3006 RMK A01 T03460153  RH  031%=      5-min Rain = 0
KME1 051726Z 17008KT 35/15 A3006 RMK A01 T03470154  RH  032%=      5-min Rain = 0
KME1 051727Z 21010KT 35/15 A3006 RMK A01 T03490153  RH  031%=      5-min Rain = 0
KME1 051728Z 19011KT 35/15 A3006 RMK A01 T03500154  RH  031%=      5-min Rain = 0
KME1 051729Z 20009KT 35/16 A3006 RMK A01 T03510155  RH  031%=      5-min Rain = 0
KME1 051730Z 20009KT 35/16 A3006 RMK A01 T03490155  RH  031%=      5-min Rain = 0
KME1 051731Z 21005KT 35/15 A3006 RMK A01 T03480151  RH  031%=      5-min Rain = 0
KME1 051732Z 19006KT 35/15 A3006 RMK A01 T03470153  RH  031%=      5-min Rain = 0
KME1 051733Z 19006KT 35/16 A3006 RMK A01 T03490155  RH  031%=      5-min Rain = 0
KME1 051734Z 19008KT 35/16 A3005 RMK A01 T03540156  RH  031%=      5-min Rain = 0
KME1 051735Z 19010KT 36/16 A3005 RMK A01 T03550156  RH  031%=      5-min Rain = 0
KME1 051736Z 17010KT 35/16 A3005 RMK A01 T03520156  RH  031%=      5-min Rain = 0
KME1 051737Z 19010KT 35/15 A3005 RMK A01 T03540153  RH  030%=      5-min Rain = 0
KME1 051738Z 15010KT 36/15 A3005 RMK A01 T03550151  RH  030%=      5-min Rain = 0
KME1 051739Z 15010KT 35/15 A3005 RMK A01 T03530150  RH  030%=      5-min Rain = 0
KME1 051740Z 15010G16KT 35/15 A3005 RMK A01 T03510150  RH  030%=      5-min Rain = 0
KME1 051741Z 17013KT 35/15 A3005 RMK A01 T03530153  RH  030%=      5-min Rain = 0
KME1 051742Z 17013KT 35/16 A3005 RMK A01 T03540155  RH  031%=      5-min Rain = 0
KME1 051743Z 17012KT 35/16 A3005 RMK A01 T03540155  RH  031%=      5-min Rain = 0
KME1 051744Z 17008KT 35/16 A3005 RMK A01 T03540155  RH  031%=      5-min Rain = 0
KME1 051745Z 19009KT 36/16 A3005 RMK A01 T03550155  RH  030%=      5-min Rain = 0
KME1 051746Z 19008KT 35/15 A3005 RMK A01 T03540153  RH  030%=      5-min Rain = 0
KME1 051747Z 18006G11KT 35/15 A3005 RMK A01 T03510152  RH  031%=      5-min Rain = 0
KME1 051748Z 16010KT 35/15 A3005 RMK A01 T03500151  RH  031%=      5-min Rain = 0
KME1 051749Z 14011KT 35/15 A3005 RMK A01 T03520151  RH  030%=      5-min Rain = 0
KME1 051750Z 16010KT 35/15 A3005 RMK A01 T03540150  RH  030%=      5-min Rain = 0
KME1 051751Z 15010KT 36/15 A3005 RMK A01 T03560149  RH  029%=      5-min Rain = 0
KME1 051752Z 15011G16KT 36/15 A3005 RMK A01 T03560150  RH  029%=      5-min Rain = 0
KME1 051753Z 17013KT 36/15 A3005 RMK A01 T03550150  RH  029%=      5-min Rain = 0
KME1 051754Z 17011KT 36/15 A3005 RMK A01 T03550149  RH  029%=      5-min Rain = 0
KME1 051755Z 18006KT 35/15 A3005 RMK A01 T03530148  RH  029%=      5-min Rain = 0
KME1 051756Z 15007G13KT 35/15 A3005 RMK A01 T03520149  RH  030%=      5-min Rain = 0
KME1 051757Z 16006KT 35/15 A3005 RMK A01 T03520146  RH  029%=      5-min Rain = 0
KME1 051758Z 17008KT 35/15 A3005 RMK A01 T03540147  RH  029%=      5-min Rain = 0
KME1 051759Z 18008KT 36/15 A3005 RMK A01 T03580149  RH  029%=      5-min Rain = 0
KME1 051800Z 19005KT 36/15 A3005 RMK A01 T03590149  RH  029%=      5-min Rain = 0
KME1 051801Z 16007G13KT 36/15 A3004 RMK A01 T03580149  RH  029%=      5-min Rain = 0
KME1 051802Z 15010KT 36/15 A3004 RMK A01 T03570152  RH  030%=      5-min Rain = 0
KME1 051803Z 16009KT 36/15 A3004 RMK A01 T03560153  RH  030%=      5-min Rain = 0
KME1 051804Z 16007KT 36/15 A3004 RMK A01 T03550154  RH  030%=      5-min Rain = 0
KME1 051805Z 15006KT 35/15 A3004 RMK A01 T03540153  RH  030%=      5-min Rain = 0
KME1 051806Z 18009KT 35/15 A3004 RMK A01 T03540152  RH  030%=      5-min Rain = 0
KME1 051807Z 19010KT 35/15 A3004 RMK A01 T03540151  RH  030%=      5-min Rain = 0
KME1 051808Z 20007KT 36/15 A3004 RMK A01 T03550149  RH  029%=      5-min Rain = 0
KME1 051809Z 20010KT 36/15 A3004 RMK A01 T03580149  RH  029%=      5-min Rain = 0
KME1 051810Z 20011KT 36/14 A3004 RMK A01 T03600144  RH  027%=      5-min Rain = 0
KME1 051811Z 19010KT 36/14 A3004 RMK A01 T03570144  RH  028%=      5-min Rain = 0
KME1 051812Z 20011KT 36/15 A3004 RMK A01 T03580147  RH  028%=      5-min Rain = 0
KME1 051813Z 20010KT 36/15 A3004 RMK A01 T03580149  RH  029%=      5-min Rain = 0
KME1 051814Z 22008KT 36/15 A3004 RMK A01 T03570150  RH  029%=      5-min Rain = 0
KME1 051815Z 20008KT 36/15 A3004 RMK A01 T03570148  RH  029%=      5-min Rain = 0
KME1 051816Z 21012KT 36/14 A3004 RMK A01 T03580144  RH  028%=      5-min Rain = 0
KME1 051817Z 20011KT 36/15 A3004 RMK A01 T03580147  RH  028%=      5-min Rain = 0
KME1 051818Z 19010KT 36/15 A3004 RMK A01 T03580147  RH  028%=      5-min Rain = 0
KME1 051819Z 20008KT 36/15 A3004 RMK A01 T03620148  RH  028%=      5-min Rain = 0
KME1 051820Z 19009KT 37/15 A3004 RMK A01 T03650148  RH  028%=      5-min Rain = 0
KME1 051821Z 20010KT 37/15 A3004 RMK A01 T03670147  RH  027%=      5-min Rain = 0
KME1 051822Z 20009KT 37/14 A3004 RMK A01 T03670143  RH  026%=      5-min Rain = 0
KME1 051823Z 19009KT 36/14 A3004 RMK A01 T03630141  RH  027%=      5-min Rain = 0
KME1 051824Z 18005G13KT 36/14 A3004 RMK A01 T03600138  RH  027%=      5-min Rain = 0
KME1 051825Z 19010KT 36/14 A3004 RMK A01 T03590144  RH  028%=      5-min Rain = 0
KME1 051826Z 19010KT 36/15 A3004 RMK A01 T03610145  RH  028%=      5-min Rain = 0
KME1 051827Z 18010KT 36/15 A3004 RMK A01 T03630145  RH  027%=      5-min Rain = 0
KME1 051828Z 18008KT 37/15 A3004 RMK A01 T03650146  RH  027%=      5-min Rain = 0
KME1 051829Z 18010KT 37/14 A3003 RMK A01 T03650142  RH  026%=      5-min Rain = 0
KME1 051830Z 18011KT 36/14 A3003 RMK A01 T03610144  RH  027%=      5-min Rain = 0
KME1 051831Z 18011KT 36/15 A3003 RMK A01 T03590145  RH  028%=      5-min Rain = 0
KME1 051832Z 18011KT 36/15 A3003 RMK A01 T03590147  RH  028%=      5-min Rain = 0
KME1 051833Z 15012KT 36/15 A3003 RMK A01 T03600147  RH  028%=      5-min Rain = 0
KME1 051834Z 14010KT 36/15 A3003 RMK A01 T03620147  RH  028%=      5-min Rain = 0
KME1 051835Z 21007KT 36/15 A3003 RMK A01 T03630149  RH  028%=      5-min Rain = 0
KME1 051836Z 21007KT 37/15 A3003 RMK A01 T03670149  RH  028%=      5-min Rain = 0
KME1 051837Z 18005KT 37/15 A3003 RMK A01 T03700148  RH  027%=      5-min Rain = 0
KME1 051838Z 18005KT 37/14 A3003 RMK A01 T03670144  RH  027%=      5-min Rain = 0
KME1 051839Z 18010G16KT 36/15 A3003 RMK A01 T03640146  RH  027%=      5-min Rain = 0
KME1 051840Z 17006KT 36/15 A3003 RMK A01 T03620145  RH  027%=      5-min Rain = 0
KME1 051841Z 16005KT 36/15 A3003 RMK A01 T03630145  RH  027%=      5-min Rain = 0
KME1 051842Z 14009KT 37/14 A3003 RMK A01 T03680143  RH  026%=      5-min Rain = 0
KME1 051843Z 14006KT 37/14 A3003 RMK A01 T03690138  RH  025%=      5-min Rain = 0
KME1 051844Z 15007KT 36/14 A3003 RMK A01 T03630138  RH  026%=      5-min Rain = 0
KME1 051845Z 17009KT 37/14 A3003 RMK A01 T03650142  RH  026%=      5-min Rain = 0
KME1 051846Z 20009KT 37/15 A3003 RMK A01 T03720146  RH  026%=      5-min Rain = 0
KME1 051847Z 20009KT 37/15 A3003 RMK A01 T03730146  RH  026%=      5-min Rain = 0
KME1 051848Z 20009KT 37/15 A3002 RMK A01 T03690145  RH  026%=      5-min Rain = 0
KME1 051849Z 16010KT 37/14 A3002 RMK A01 T03670140  RH  026%=      5-min Rain = 0
KME1 051850Z 15009KT 37/14 A3002 RMK A01 T03670141  RH  026%=      5-min Rain = 0
KME1 051851Z 14011KT 37/14 A3002 RMK A01 T03710138  RH  025%=      5-min Rain = 0
KME1 051852Z 14011KT 37/14 A3002 RMK A01 T03720136  RH  025%=      5-min Rain = 0
KME1 051853Z 13012KT 37/14 A3002 RMK A01 T03680135  RH  025%=      5-min Rain = 0
KME1 051854Z 14011G16KT 37/14 A3002 RMK A01 T03660136  RH  025%=      5-min Rain = 0
KME1 051855Z 14014KT 37/14 A3002 RMK A01 T03680137  RH  025%=      5-min Rain = 0
KME1 051856Z 15009KT 37/14 A3002 RMK A01 T03660135  RH  025%=      5-min Rain = 0
KME1 051857Z 15009KT 36/14 A3002 RMK A01 T03630137  RH  026%=      5-min Rain = 0
KME1 051858Z 16011KT 36/14 A3002 RMK A01 T03640137  RH  026%=      5-min Rain = 0
KME1 051859Z 19009KT 37/14 A3002 RMK A01 T03660138  RH  026%=      5-min Rain = 0
KME1 051900Z 19010KT 37/14 A3002 RMK A01 T03690139  RH  025%=      5-min Rain = 0
KME1 051901Z 19012G18KT 37/14 A3002 RMK A01 T03730137  RH  025%=      5-min Rain = 0
KME1 051902Z 18013KT 37/14 A3002 RMK A01 T03720139  RH  025%=      5-min Rain = 0
KME1 051903Z 19010KT 37/14 A3002 RMK A01 T03720140  RH  025%=      5-min Rain = 0
KME1 051904Z 20008KT 37/14 A3002 RMK A01 T03720141  RH  025%=      5-min Rain = 0
KME1 051905Z 19009KT 37/14 A3001 RMK A01 T03710140  RH  025%=      5-min Rain = 0
KME1 051906Z 17007KT 37/14 A3001 RMK A01 T03690141  RH  026%=      5-min Rain = 0
KME1 051907Z 17009G19KT 37/14 A3001 RMK A01 T03710141  RH  026%=      5-min Rain = 0
KME1 051908Z 17014KT 37/14 A3001 RMK A01 T03720141  RH  025%=      5-min Rain = 0
KME1 051909Z 17014KT 37/14 A3001 RMK A01 T03720140  RH  025%=      5-min Rain = 0
KME1 051910Z 17008KT 37/14 A3001 RMK A01 T03700137  RH  025%=      5-min Rain = 0
KME1 051911Z 17008KT 37/14 A3001 RMK A01 T03670138  RH  026%=      5-min Rain = 0
KME1 051912Z 16007KT 37/14 A3001 RMK A01 T03670139  RH  026%=      5-min Rain = 0
KME1 051913Z 16009G14KT 37/14 A3001 RMK A01 T03680139  RH  025%=      5-min Rain = 0
KME1 051914Z 16008KT 37/14 A3001 RMK A01 T03710140  RH  025%=      5-min Rain = 0
KME1 051915Z 16009KT 37/14 A3001 RMK A01 T03740139  RH  025%=      5-min Rain = 0
KME1 051916Z 19007KT 37/14 A3001 RMK A01 T03710136  RH  025%=      5-min Rain = 0
KME1 051917Z 18009KT 37/14 A3001 RMK A01 T03690138  RH  025%=      5-min Rain = 0
KME1 051918Z 18010G16KT 37/14 A3001 RMK A01 T03740142  RH  025%=      5-min Rain = 0
KME1 051919Z 17011KT 38/14 A3001 RMK A01 T03800139  RH  024%=      5-min Rain = 0
KME1 051920Z 17012G17KT 38/14 A3001 RMK A01 T03810139  RH  024%=      5-min Rain = 0
KME1 051921Z 18014KT 38/14 A3001 RMK A01 T03800137  RH  024%=      5-min Rain = 0
KME1 051922Z 18014KT 38/14 A3001 RMK A01 T03770136  RH  024%=      5-min Rain = 0
KME1 051923Z 19012KT 38/14 A3001 RMK A01 T03750136  RH  024%=      5-min Rain = 0
KME1 051924Z 19009KT 37/14 A3001 RMK A01 T03730138  RH  025%=      5-min Rain = 0
KME1 051925Z 17005KT 37/14 A3001 RMK A01 T03720137  RH  025%=      5-min Rain = 0
KME1 051926Z 18007G12KT 37/14 A3001 RMK A01 T03730138  RH  025%=      5-min Rain = 0
KME1 051927Z 19011KT 38/14 A3001 RMK A01 T03780140  RH  024%=      5-min Rain = 0
KME1 051928Z 21013KT 38/14 A3001 RMK A01 T03760139  RH  024%=      5-min Rain = 0
KME1 051929Z 20014KT 37/14 A3001 RMK A01 T03740140  RH  025%=      5-min Rain = 0
KME1 051930Z 20012G18KT 37/14 A3001 RMK A01 T03720140  RH  025%=      5-min Rain = 0
KME1 051931Z 21012KT 37/14 A3001 RMK A01 T03720140  RH  025%=      5-min Rain = 0
KME1 051932Z 19009KT 37/14 A3001 RMK A01 T03740141  RH  025%=      5-min Rain = 0
KME1 051933Z 19006KT 38/14 A3001 RMK A01 T03750140  RH  025%=      5-min Rain = 0
KME1 051934Z 19010KT 37/14 A3001 RMK A01 T03720140  RH  025%=      5-min Rain = 0
KME1 051935Z 18013KT 37/14 A30 RMK A01 T03720140  RH  025%=      5-min Rain = 0
KME1 051936Z 17014KT 37/14 A30 RMK A01 T03740137  RH  024%=      5-min Rain = 0
KME1 051937Z 17011KT 38/14 A3001 RMK A01 T03750135  RH  024%=      5-min Rain = 0
KME1 051938Z 15009KT 37/14 A30 RMK A01 T03720135  RH  024%=      5-min Rain = 0
KME1 051939Z 17008KT 37/14 A30 RMK A01 T03730135  RH  024%=      5-min Rain = 0
KME1 051940Z 15007KT 38/14 A30 RMK A01 T03770138  RH  024%=      5-min Rain = 0
KME1 051941Z 14010KT 38/14 A30 RMK A01 T03790140  RH  024%=      5-min Rain = 0
KME1 051942Z 14009KT 38/14 A30 RMK A01 T03780141  RH  024%=      5-min Rain = 0
KME1 051943Z 16008KT 38/14 A30 RMK A01 T03780142  RH  025%=      5-min Rain = 0
KME1 051944Z 17008KT 38/14 A30 RMK A01 T03780140  RH  024%=      5-min Rain = 0
KME1 051945Z 17012KT 38/14 A30 RMK A01 T03770138  RH  024%=      5-min Rain = 0
KME1 051946Z 16011KT 38/14 A30 RMK A01 T03780136  RH  024%=      5-min Rain = 0
KME1 051947Z 15011KT 38/14 A30 RMK A01 T03790137  RH  024%=      5-min Rain = 0
KME1 051948Z 16013KT 38/14 A30 RMK A01 T03810135  RH  023%=      5-min Rain = 0
KME1 051949Z 18013KT 38/13 A30 RMK A01 T03810134  RH  023%=      5-min Rain = 0
KME1 051950Z 17010KT 38/13 A30 RMK A01 T03770132  RH  023%=      5-min Rain = 0
KME1 051951Z 17009KT 37/13 A30 RMK A01 T03740133  RH  024%=      5-min Rain = 0
KME1 051952Z 17008KT 37/14 A30 RMK A01 T03720135  RH  024%=      5-min Rain = 0
KME1 051953Z 20006KT 37/14 A30 RMK A01 T03730135  RH  024%=      5-min Rain = 0
KME1 051954Z 20004KT 38/14 A2999 RMK A01 T03750138  RH  024%=      5-min Rain = 0
KME1 051955Z 16008KT 38/14 A2999 RMK A01 T03780137  RH  024%=      5-min Rain = 0
KME1 051956Z 16006KT 38/14 A2999 RMK A01 T03770137  RH  024%=      5-min Rain = 0
KME1 051957Z 17015KT 38/14 A2999 RMK A01 T03780137  RH  024%=      5-min Rain = 0
KME1 051958Z 18013G19KT 38/13 A2999 RMK A01 T03780131  RH  023%=      5-min Rain = 0
KME1 051959Z 18013KT 38/13 A2999 RMK A01 T03760133  RH  024%=      5-min Rain = 0
KME1 052000Z 17012G17KT 38/13 A2999 RMK A01 T03790130  RH  023%=      5-min Rain = 0
KME1 052001Z 17009KT 38/13 A2999 RMK A01 T03790130  RH  023%=      5-min Rain = 0
KME1 052002Z 15009G14KT 38/13 A2999 RMK A01 T03810132  RH  023%=      5-min Rain = 0
KME1 052003Z 16011KT 38/14 A2999 RMK A01 T03830136  RH  023%=      5-min Rain = 0
KME1 052004Z 17009KT 38/14 A2999 RMK A01 T03840138  RH  023%=      5-min Rain = 0
KME1 052005Z 17009KT 38/14 A2999 RMK A01 T03830138  RH  023%=      5-min Rain = 0
KME1 052006Z 17008KT 38/14 A2999 RMK A01 T03820139  RH  024%=      5-min Rain = 0
KME1 052007Z 19011KT 38/14 A2998 RMK A01 T03820138  RH  023%=      5-min Rain = 0
KME1 052008Z 18013KT 38/14 A2998 RMK A01 T03820135  RH  023%=      5-min Rain = 0
KME1 052009Z 18011KT 38/13 A2998 RMK A01 T03800133  RH  023%=      5-min Rain = 0
KME1 052010Z 19012KT 38/13 A2998 RMK A01 T03800134  RH  023%=      5-min Rain = 0
KME1 052011Z 17012KT 38/13 A2998 RMK A01 T03810132  RH  023%=      5-min Rain = 0
KME1 052012Z 16011KT 38/13 A2998 RMK A01 T03820126  RH  022%=      5-min Rain = 0
KME1 052013Z 15011KT 38/13 A2998 RMK A01 T03820126  RH  022%=      5-min Rain = 0
KME1 052014Z 15009KT 38/13 A2998 RMK A01 T03820127  RH  022%=      5-min Rain = 0
KME1 052015Z 18009KT 38/13 A2998 RMK A01 T03820127  RH  022%=      5-min Rain = 0
KME1 052016Z 18009KT 38/13 A2998 RMK A01 T03830128  RH  022%=      5-min Rain = 0
KME1 052017Z 18008G14KT 38/13 A2998 RMK A01 T03840130  RH  022%=      5-min Rain = 0
KME1 052018Z 17012KT 39/13 A2998 RMK A01 T03860132  RH  022%=      5-min Rain = 0
KME1 052019Z 17014G19KT 39/13 A2998 RMK A01 T03860132  RH  022%=      5-min Rain = 0
KME1 052020Z 18014G19KT 39/13 A2997 RMK A01 T03860132  RH  022%=      5-min Rain = 0
KME1 052021Z 14013KT 39/13 A2997 RMK A01 T03860133  RH  022%=      5-min Rain = 0
KME1 052022Z 18014KT 39/13 A2997 RMK A01 T03880132  RH  022%=      5-min Rain = 0
KME1 052023Z 17012G17KT 39/13 A2997 RMK A01 T03860131  RH  022%=      5-min Rain = 0
KME1 052024Z 18009KT 38/13 A2997 RMK A01 T03830129  RH  022%=      5-min Rain = 0
KME1 052025Z 17008KT 38/13 A2997 RMK A01 T03830131  RH  022%=      5-min Rain = 0
KME1 052026Z 17010KT 39/13 A2997 RMK A01 T03860131  RH  022%=      5-min Rain = 0
KME1 052027Z 18010KT 39/13 A2997 RMK A01 T03850128  RH  022%=      5-min Rain = 0
KME1 052028Z 16015KT 38/13 A2997 RMK A01 T03830129  RH  022%=      5-min Rain = 0
KME1 052029Z 16013KT 39/13 A2997 RMK A01 T03870130  RH  022%=      5-min Rain = 0
KME1 052030Z 17012KT 39/13 A2997 RMK A01 T03900130  RH  021%=      5-min Rain = 0
KME1 052031Z 18013KT 39/13 A2997 RMK A01 T03880127  RH  021%=      5-min Rain = 0
KME1 052032Z 17007KT 38/13 A2997 RMK A01 T03820125  RH  022%=      5-min Rain = 0
KME1 052033Z 17006KT 38/13 A2996 RMK A01 T03800129  RH  022%=      5-min Rain = 0
KME1 052034Z 15009G18KT 39/13 A2996 RMK A01 T03860131  RH  022%=      5-min Rain = 0
KME1 052035Z 16017KT 39/13 A2996 RMK A01 T03900129  RH  021%=      5-min Rain = 0
KME1 052036Z 17013KT 39/13 A2996 RMK A01 T03900128  RH  021%=      5-min Rain = 0
KME1 052037Z 18012G17KT 39/13 A2996 RMK A01 T03910129  RH  021%=      5-min Rain = 0
KME1 052038Z 17011KT 39/13 A2996 RMK A01 T03920126  RH  021%=      5-min Rain = 0
KME1 052039Z 17013KT 39/12 A2996 RMK A01 T03870123  RH  021%=      5-min Rain = 0
KME1 052040Z 17016KT 38/13 A2996 RMK A01 T03840126  RH  021%=      5-min Rain = 0
KME1 052041Z 18016KT 38/13 A2996 RMK A01 T03820125  RH  022%=      5-min Rain = 0
KME1 052042Z 17009KT 38/12 A2996 RMK A01 T03780124  RH  022%=      5-min Rain = 0
KME1 052043Z 16012KT 38/13 A2996 RMK A01 T03800127  RH  022%=      5-min Rain = 0
KME1 052044Z 16013G19KT 38/13 A2996 RMK A01 T03840125  RH  021%=      5-min Rain = 0
KME1 052045Z 17018KT 38/12 A2996 RMK A01 T03830123  RH  021%=      5-min Rain = 0
KME1 052046Z 17013KT 38/12 A2996 RMK A01 T03820124  RH  021%=      5-min Rain = 0
KME1 052047Z 19012KT 39/13 A2996 RMK A01 T03850127  RH  021%=      5-min Rain = 0
KME1 052048Z 17012G18KT 39/13 A2996 RMK A01 T03860127  RH  022%=      5-min Rain = 0
KME1 052049Z 17016KT 39/13 A2996 RMK A01 T03870127  RH  021%=      5-min Rain = 0
KME1 052050Z 17013KT 39/13 A2996 RMK A01 T03860127  RH  021%=      5-min Rain = 0
KME1 052051Z 17011KT 39/13 A2995 RMK A01 T03860126  RH  021%=      5-min Rain = 0
KME1 052052Z 17010KT 39/13 A2995 RMK A01 T03850127  RH  022%=      5-min Rain = 0
KME1 052053Z 16013G19KT 39/13 A2995 RMK A01 T03860129  RH  022%=      5-min Rain = 0
KME1 052054Z 17011G16KT 39/13 A2995 RMK A01 T03860131  RH  022%=      5-min Rain = 0
KME1 052055Z 17014KT 39/13 A2995 RMK A01 T03870131  RH  022%=      5-min Rain = 0
KME1 052056Z 19013G18KT 39/13 A2995 RMK A01 T03880132  RH  022%=      5-min Rain = 0
KME1 052057Z 19015G21KT 39/13 A2995 RMK A01 T03880130  RH  022%=      5-min Rain = 0
KME1 052058Z 16014KT 39/13 A2995 RMK A01 T03870128  RH  021%=      5-min Rain = 0
KME1 052059Z 16014KT 39/13 A2995 RMK A01 T03880125  RH  021%=      5-min Rain = 0
KME1 052100Z 17014KT 39/13 A2995 RMK A01 T03880127  RH  021%=      5-min Rain = 0
KME1 052101Z 18012G20KT 39/13 A2995 RMK A01 T03870128  RH  021%=      5-min Rain = 0
KME1 052102Z 17017KT 39/13 A2995 RMK A01 T03880128  RH  021%=      5-min Rain = 0
KME1 052103Z 16017KT 39/12 A2995 RMK A01 T03880123  RH  021%=      5-min Rain = 0
KME1 052104Z 16012KT 39/13 A2995 RMK A01 T03860126  RH  021%=      5-min Rain = 0
KME1 052105Z 16009KT 39/13 A2995 RMK A01 T03880128  RH  021%=      5-min Rain = 0
KME1 052106Z 16009KT 39/13 A2995 RMK A01 T03890131  RH  022%=      5-min Rain = 0
KME1 052107Z 18009KT 39/13 A2994 RMK A01 T03890132  RH  022%=      5-min Rain = 0
KME1 052108Z 18009KT 39/13 A2994 RMK A01 T03860132  RH  022%=      5-min Rain = 0
KME1 052109Z 17011KT 38/13 A2994 RMK A01 T03840132  RH  022%=      5-min Rain = 0
KME1 052110Z 15012G17KT 39/13 A2994 RMK A01 T03850134  RH  023%=      5-min Rain = 0
KME1 052111Z 15013KT 39/13 A2994 RMK A01 T03890129  RH  021%=      5-min Rain = 0
KME1 052112Z 15016G21KT 39/13 A2994 RMK A01 T03900130  RH  021%=      5-min Rain = 0
KME1 052113Z 15016KT 39/13 A2994 RMK A01 T03880130  RH  022%=      5-min Rain = 0
KME1 052114Z 15016KT 39/13 A2994 RMK A01 T03860130  RH  022%=      5-min Rain = 0
KME1 052115Z 14014KT 39/13 A2994 RMK A01 T03860129  RH  022%=      5-min Rain = 0
KME1 052116Z 15012KT 39/13 A2994 RMK A01 T03860129  RH  022%=      5-min Rain = 0
KME1 052117Z 16012KT 39/13 A2994 RMK A01 T03870128  RH  022%=      5-min Rain = 0
KME1 052118Z 17014KT 39/13 A2994 RMK A01 T03910129  RH  021%=      5-min Rain = 0
KME1 052119Z 16014KT 39/13 A2994 RMK A01 T03920125  RH  021%=      5-min Rain = 0
KME1 052120Z 15012KT 39/13 A2994 RMK A01 T03890126  RH  021%=      5-min Rain = 0
KME1 052121Z 15013KT 39/12 A2994 RMK A01 T03920124  RH  020%=      5-min Rain = 0
KME1 052122Z 14015G20KT 39/12 A2994 RMK A01 T03910124  RH  020%=      5-min Rain = 0
KME1 052123Z 14014KT 39/12 A2994 RMK A01 T03860123  RH  021%=      5-min Rain = 0
KME1 052124Z 16011KT 39/13 A2994 RMK A01 T03850125  RH  021%=      5-min Rain = 0
KME1 052125Z 15013KT 39/13 A2994 RMK A01 T03870125  RH  021%=      5-min Rain = 0
KME1 052126Z 17011KT 39/13 A2994 RMK A01 T03890126  RH  021%=      5-min Rain = 0
KME1 052127Z 17010KT 39/13 A2994 RMK A01 T03890128  RH  021%=      5-min Rain = 0
KME1 052128Z 16007G12KT 39/13 A2994 RMK A01 T03890129  RH  021%=      5-min Rain = 0
KME1 052129Z 16007KT 39/13 A2994 RMK A01 T03880129  RH  021%=      5-min Rain = 0
KME1 052130Z 18012KT 39/13 A2993 RMK A01 T03890130  RH  021%=      5-min Rain = 0
KME1 052131Z 18013KT 39/13 A2993 RMK A01 T03890130  RH  022%=      5-min Rain = 0
KME1 052132Z 18014KT 39/13 A2993 RMK A01 T03870131  RH  022%=      5-min Rain = 0
KME1 052133Z 18013KT 39/13 A2993 RMK A01 T03870130  RH  022%=      5-min Rain = 0
KME1 052134Z 17015KT 39/13 A2993 RMK A01 T03880131  RH  022%=      5-min Rain = 0
KME1 052135Z 19015KT 39/13 A2993 RMK A01 T03890131  RH  022%=      5-min Rain = 0
KME1 052136Z 19010G15KT 39/13 A2993 RMK A01 T03880129  RH  022%=      5-min Rain = 0
KME1 052137Z 18009KT 39/13 A2993 RMK A01 T03880130  RH  022%=      5-min Rain = 0
KME1 052138Z 16014KT 39/13 A2993 RMK A01 T03900129  RH  021%=      5-min Rain = 0
KME1 052139Z 16015KT 39/12 A2993 RMK A01 T03900124  RH  021%=      5-min Rain = 0
KME1 052140Z 15013KT 39/12 A2993 RMK A01 T03880122  RH  021%=      5-min Rain = 0
KME1 052141Z 16015KT 39/12 A2993 RMK A01 T03870123  RH  021%=      5-min Rain = 0
KME1 052142Z 16017KT 39/12 A2993 RMK A01 T03890124  RH  021%=      5-min Rain = 0
KME1 052143Z 15013G21KT 39/13 A2993 RMK A01 T03890125  RH  021%=      5-min Rain = 0
KME1 052144Z 14015KT 39/13 A2993 RMK A01 T03890127  RH  021%=      5-min Rain = 0
KME1 052145Z 16014KT 39/13 A2993 RMK A01 T03870127  RH  021%=      5-min Rain = 0
KME1 052146Z 19011KT 39/13 A2993 RMK A01 T03870129  RH  022%=      5-min Rain = 0
KME1 052147Z 20013KT 39/13 A2993 RMK A01 T03900125  RH  021%=      5-min Rain = 0
KME1 052148Z 18009KT 39/13 A2993 RMK A01 T03870125  RH  021%=      5-min Rain = 0
KME1 052149Z 18009KT 39/13 A2993 RMK A01 T03880125  RH  021%=      5-min Rain = 0
KME1 052150Z 18009KT 39/12 A2993 RMK A01 T03890124  RH  021%=      5-min Rain = 0
KME1 052151Z 18007KT 39/12 A2992 RMK A01 T03870121  RH  021%=      5-min Rain = 0
KME1 052152Z 15010G16KT 39/12 A2993 RMK A01 T03870124  RH  021%=      5-min Rain = 0
KME1 052153Z 16015G20KT 39/12 A2993 RMK A01 T03890119  RH  020%=      5-min Rain = 0
KME1 052154Z 16015KT 39/12 A2993 RMK A01 T03890117  RH  020%=      5-min Rain = 0
KME1 052155Z 16014KT 39/12 A2992 RMK A01 T03870117  RH  020%=      5-min Rain = 0
KME1 052156Z 17012G17KT 39/12 A2992 RMK A01 T03870117  RH  020%=      5-min Rain = 0
KME1 052157Z 16012KT 39/12 A2993 RMK A01 T03890116  RH  020%=      5-min Rain = 0
KME1 052158Z 16014KT 39/11 A2992 RMK A01 T03920114  RH  019%=      5-min Rain = 0
KME1 052159Z 15013KT 39/12 A2993 RMK A01 T03910115  RH  019%=      5-min Rain = 0
KME1 052200Z 15012KT 39/12 A2993 RMK A01 T03900119  RH  020%=      5-min Rain = 0
KME1 052201Z 15010KT 39/12 A2992 RMK A01 T03890120  RH  020%=      5-min Rain = 0
KME1 052202Z 17011KT 39/12 A2992 RMK A01 T03880121  RH  020%=      5-min Rain = 0
KME1 052203Z 17012G17KT 39/12 A2992 RMK A01 T03900123  RH  020%=      5-min Rain = 0
KME1 052204Z 18015G20KT 39/12 A2992 RMK A01 T03910122  RH  020%=      5-min Rain = 0
KME1 052205Z 17015G21KT 39/12 A2992 RMK A01 T03900120  RH  020%=      5-min Rain = 0
KME1 052206Z 17013KT 39/12 A2992 RMK A01 T03880119  RH  020%=      5-min Rain = 0
KME1 052207Z 16012KT 39/12 A2992 RMK A01 T03880120  RH  020%=      5-min Rain = 0
KME1 052208Z 17015KT 39/12 A2992 RMK A01 T03880120  RH  020%=      5-min Rain = 0
KME1 052209Z 17015KT 39/12 A2992 RMK A01 T03900120  RH  020%=      5-min Rain = 0
KME1 052210Z 18017G24KT 39/12 A2992 RMK A01 T03880120  RH  020%=      5-min Rain = 0
KME1 052211Z 19016KT 39/12 A2992 RMK A01 T03860122  RH  021%=      5-min Rain = 0
KME1 052212Z 18013KT 39/12 A2992 RMK A01 T03860121  RH  021%=      5-min Rain = 0
KME1 052213Z 18012KT 39/12 A2992 RMK A01 T03860121  RH  021%=      5-min Rain = 0
KME1 052214Z 16007KT 39/12 A2992 RMK A01 T03860121  RH  021%=      5-min Rain = 0
KME1 052215Z 19010KT 39/12 A2992 RMK A01 T03880124  RH  021%=      5-min Rain = 0
KME1 052216Z 19008KT 39/12 A2992 RMK A01 T03870124  RH  021%=      5-min Rain = 0
KME1 052217Z 17010G15KT 39/12 A2992 RMK A01 T03870124  RH  021%=      5-min Rain = 0
KME1 052218Z 17015KT 39/13 A2992 RMK A01 T03890126  RH  021%=      5-min Rain = 0
KME1 052219Z 17014KT 39/13 A2992 RMK A01 T03900126  RH  021%=      5-min Rain = 0
KME1 052220Z 17012KT 39/13 A2992 RMK A01 T03880125  RH  021%=      5-min Rain = 0
KME1 052221Z 16013G18KT 39/13 A2992 RMK A01 T03870125  RH  021%=      5-min Rain = 0
KME1 052222Z 15012KT 39/13 A2992 RMK A01 T03890125  RH  021%=      5-min Rain = 0
KME1 052223Z 15010G15KT 39/12 A2992 RMK A01 T03900124  RH  020%=      5-min Rain = 0
KME1 052224Z 15012KT 39/12 A2992 RMK A01 T03900120  RH  020%=      5-min Rain = 0
KME1 052225Z 17010G15KT 39/12 A2992 RMK A01 T03880121  RH  020%=      5-min Rain = 0
KME1 052226Z 18013KT 39/12 A2992 RMK A01 T03870124  RH  021%=      5-min Rain = 0
KME1 052227Z 19012G17KT 39/13 A2992 RMK A01 T03870126  RH  021%=      5-min Rain = 0
KME1 052228Z 19011KT 39/13 A2992 RMK A01 T03860126  RH  021%=      5-min Rain = 0
KME1 052229Z 18009KT 39/13 A2992 RMK A01 T03860126  RH  021%=      5-min Rain = 0
KME1 052230Z 18007KT 39/13 A2992 RMK A01 T03870129  RH  021%=      5-min Rain = 0
KME1 052231Z 18008KT 39/13 A2992 RMK A01 T03900128  RH  021%=      5-min Rain = 0
KME1 052232Z 17010G15KT 39/13 A2992 RMK A01 T03910125  RH  021%=      5-min Rain = 0
KME1 052233Z 16009KT 39/12 A2992 RMK A01 T03920123  RH  020%=      5-min Rain = 0
KME1 052234Z 18014KT 39/12 A2992 RMK A01 T03910120  RH  020%=      5-min Rain = 0
KME1 052235Z 17014G19KT 39/12 A2992 RMK A01 T03900120  RH  020%=      5-min Rain = 0
KME1 052236Z 16018KT 39/12 A2991 RMK A01 T03890119  RH  020%=      5-min Rain = 0
KME1 052237Z 16015KT 39/12 A2992 RMK A01 T03870119  RH  020%=      5-min Rain = 0
KME1 052238Z 16015KT 39/12 A2992 RMK A01 T03860119  RH  020%=      5-min Rain = 0
KME1 052239Z 17015KT 39/12 A2991 RMK A01 T03860116  RH  020%=      5-min Rain = 0
KME1 052240Z 17013KT 39/11 A2992 RMK A01 T03870114  RH  020%=      5-min Rain = 0
KME1 052241Z 17016KT 39/11 A2992 RMK A01 T03880113  RH  019%=      5-min Rain = 0
KME1 052242Z 17012G17KT 39/11 A2991 RMK A01 T03860112  RH  019%=      5-min Rain = 0
KME1 052243Z 17013KT 39/12 A2991 RMK A01 T03850115  RH  020%=      5-min Rain = 0
KME1 052244Z 17014KT 39/12 A2991 RMK A01 T03850117  RH  020%=      5-min Rain = 0
KME1 052245Z 17011KT 39/12 A2991 RMK A01 T03850118  RH  020%=      5-min Rain = 0
KME1 052246Z 18011KT 39/12 A2991 RMK A01 T03860118  RH  020%=      5-min Rain = 0
KME1 052247Z 18010KT 39/12 A2991 RMK A01 T03880118  RH  020%=      5-min Rain = 0
KME1 052248Z 17011KT 39/12 A2991 RMK A01 T03880118  RH  020%=      5-min Rain = 0
KME1 052249Z 18013KT 39/12 A2991 RMK A01 T03880116  RH  020%=      5-min Rain = 0
KME1 052250Z 18013G18KT 39/12 A2991 RMK A01 T03870116  RH  020%=      5-min Rain = 0
KME1 052251Z 17015KT 39/12 A2991 RMK A01 T03870116  RH  020%=      5-min Rain = 0
KME1 052252Z 17012KT 39/12 A2991 RMK A01 T03880117  RH  020%=      5-min Rain = 0
KME1 052253Z 17012KT 39/12 A2991 RMK A01 T03880115  RH  020%=      5-min Rain = 0
KME1 052254Z 17012KT 39/11 A2991 RMK A01 T03870113  RH  020%=      5-min Rain = 0
KME1 052255Z 14012KT 38/11 A2991 RMK A01 T03840112  RH  020%=      5-min Rain = 0
KME1 052256Z 16013KT 39/11 A2991 RMK A01 T03850112  RH  020%=      5-min Rain = 0
KME1 052257Z 17014KT 39/11 A2991 RMK A01 T03850110  RH  019%=      5-min Rain = 0
KME1 052258Z 16012KT 39/11 A2991 RMK A01 T03850109  RH  019%=      5-min Rain = 0
KME1 052259Z 16011KT 38/11 A2991 RMK A01 T03840108  RH  019%=      5-min Rain = 0
KME1 052300Z 14014KT 38/11 A2991 RMK A01 T03840106  RH  019%=      5-min Rain = 0
KME1 052301Z 15012KT 38/11 A2991 RMK A01 T03840107  RH  019%=      5-min Rain = 0
KME1 052302Z 16012KT 38/11 A2991 RMK A01 T03840109  RH  019%=      5-min Rain = 0
KME1 052303Z 16010KT 39/11 A2991 RMK A01 T03850110  RH  019%=      5-min Rain = 0
KME1 052304Z 15010G15KT 39/11 A2991 RMK A01 T03870112  RH  019%=      5-min Rain = 0
KME1 052305Z 15016KT 39/11 A2991 RMK A01 T03870113  RH  019%=      5-min Rain = 0
KME1 052306Z 16016KT 38/12 A2991 RMK A01 T03840117  RH  020%=      5-min Rain = 0
KME1 052307Z 16016G22KT 38/12 A2991 RMK A01 T03830117  RH  020%=      5-min Rain = 0
KME1 052308Z 16011KT 38/12 A2991 RMK A01 T03820117  RH  020%=      5-min Rain = 0
KME1 052309Z 16012KT 38/12 A2991 RMK A01 T03840117  RH  020%=      5-min Rain = 0
KME1 052310Z 17012G17KT 38/12 A2991 RMK A01 T03840117  RH  020%=      5-min Rain = 0
KME1 052311Z 17010KT 39/12 A2991 RMK A01 T03850118  RH  020%=      5-min Rain = 0
KME1 052312Z 17012KT 39/12 A2991 RMK A01 T03860117  RH  020%=      5-min Rain = 0
KME1 052313Z 18009KT 39/12 A2991 RMK A01 T03850117  RH  020%=      5-min Rain = 0
KME1 052314Z 20011KT 39/12 A2991 RMK A01 T03850117  RH  020%=      5-min Rain = 0
KME1 052315Z 20011KT 38/12 A2991 RMK A01 T03840115  RH  020%=      5-min Rain = 0
KME1 052316Z 19009KT 38/12 A2991 RMK A01 T03830116  RH  020%=      5-min Rain = 0
KME1 052317Z 17012G17KT 38/12 A2991 RMK A01 T03840116  RH  020%=      5-min Rain = 0
KME1 052318Z 16014KT 39/12 A2991 RMK A01 T03850116  RH  020%=      5-min Rain = 0
KME1 052319Z 17012KT 39/12 A2991 RMK A01 T03850115  RH  020%=      5-min Rain = 0
KME1 052320Z 15011KT 38/12 A2991 RMK A01 T03830115  RH  020%=      5-min Rain = 0
KME1 052321Z 16010KT 38/11 A2991 RMK A01 T03830114  RH  020%=      5-min Rain = 0
KME1 052322Z 16009KT 38/11 A2991 RMK A01 T03820114  RH  020%=      5-min Rain = 0
KME1 052323Z 17010KT 38/11 A2991 RMK A01 T03820113  RH  020%=      5-min Rain = 0
KME1 052324Z 16011KT 38/11 A2991 RMK A01 T03820114  RH  020%=      5-min Rain = 0
KME1 052325Z 16008G13KT 38/12 A2991 RMK A01 T03830116  RH  020%=      5-min Rain = 0
KME1 052326Z 17008KT 38/12 A2991 RMK A01 T03830118  RH  021%=      5-min Rain = 0
KME1 052327Z 15009KT 38/12 A2991 RMK A01 T03840120  RH  021%=      5-min Rain = 0
KME1 052328Z 18011G17KT 38/12 A2991 RMK A01 T03840119  RH  021%=      5-min Rain = 0
KME1 052329Z 18016KT 38/12 A2991 RMK A01 T03820118  RH  021%=      5-min Rain = 0
KME1 052330Z 17013KT 38/12 A2991 RMK A01 T03800118  RH  021%=      5-min Rain = 0
KME1 052331Z 17012KT 38/12 A2991 RMK A01 T03790118  RH  021%=      5-min Rain = 0
KME1 052332Z 16014KT 38/12 A2991 RMK A01 T03790118  RH  021%=      5-min Rain = 0
KME1 052333Z 15015G22KT 38/12 A2991 RMK A01 T03790118  RH  021%=      5-min Rain = 0
KME1 052334Z 16016G21KT 38/12 A299 RMK A01 T03790119  RH  021%=      5-min Rain = 0
KME1 052335Z 16011G17KT 38/12 A2991 RMK A01 T03790119  RH  021%=      5-min Rain = 0
KME1 052336Z 16015KT 38/12 A2991 RMK A01 T03790119  RH  021%=      5-min Rain = 0
KME1 052337Z 16014KT 38/12 A2991 RMK A01 T03780117  RH  021%=      5-min Rain = 0
KME1 052338Z 15010KT 38/12 A2991 RMK A01 T03780116  RH  021%=      5-min Rain = 0
KME1 052339Z 14010KT 38/12 A2991 RMK A01 T03780116  RH  021%=      5-min Rain = 0
KME1 052340Z 18013KT 38/12 A2991 RMK A01 T03780116  RH  021%=      5-min Rain = 0
KME1 052341Z 17011KT 38/12 A2991 RMK A01 T03770116  RH  021%=      5-min Rain = 0
KME1 052342Z 18009KT 38/12 A2991 RMK A01 T03770117  RH  021%=      5-min Rain = 0
KME1 052343Z 19009KT 38/12 A2991 RMK A01 T03770117  RH  021%=      5-min Rain = 0
KME1 052344Z 19007KT 38/12 A2991 RMK A01 T03770117  RH  021%=      5-min Rain = 0
KME1 052345Z 18007KT 38/12 A2991 RMK A01 T03770117  RH  021%=      5-min Rain = 0
KME1 052346Z 16006KT 38/12 A2991 RMK A01 T03780118  RH  021%=      5-min Rain = 0
KME1 052347Z 17009KT 38/12 A2991 RMK A01 T03790117  RH  021%=      5-min Rain = 0
KME1 052348Z 15010KT 38/12 A2991 RMK A01 T03790116  RH  021%=      5-min Rain = 0
KME1 052349Z 13008KT 38/12 A2991 RMK A01 T03800117  RH  021%=      5-min Rain = 0
KME1 052350Z 14008KT 38/12 A2991 RMK A01 T03800117  RH  021%=      5-min Rain = 0
KME1 052351Z 15011KT 38/12 A2991 RMK A01 T03790117  RH  021%=      5-min Rain = 0
KME1 052352Z 15013KT 38/12 A2991 RMK A01 T03780117  RH  021%=      5-min Rain = 0
KME1 052353Z 17012KT 38/12 A2991 RMK A01 T03770118  RH  021%=      5-min Rain = 0
KME1 052354Z 18010KT 38/12 A2991 RMK A01 T03770118  RH  021%=      5-min Rain = 0
KME1 052355Z 18011KT 38/12 A2991 RMK A01 T03770118  RH  021%=      5-min Rain = 0
KME1 052356Z 18012KT 38/12 A2991 RMK A01 T03760117  RH  021%=      5-min Rain = 0
KME1 052357Z 19011KT 38/12 A2991 RMK A01 T03750117  RH  021%=      5-min Rain = 0
KME1 052358Z 18010KT 38/12 A2991 RMK A01 T03750116  RH  021%=      5-min Rain = 0
KME1 052359Z 17011KT 38/12 A2991 RMK A01 T03750117  RH  021%=      5-min Rain = 0
KME1 060000Z 18010KT 38/12 A2991 RMK A01 T03750116  RH  021%=      5-min Rain = 0
KME1 060001Z 17010KT 38/12 A2991 RMK A01 T03750117  RH  021%=      5-min Rain = 0
KME1 060002Z 17011KT 38/12 A2991 RMK A01 T03750116  RH  021%=      5-min Rain = 0
KME1 060003Z 17013KT 38/12 A2991 RMK A01 T03760115  RH  021%=      5-min Rain = 0
KME1 060004Z 17010KT 38/11 A2991 RMK A01 T03760114  RH  021%=      5-min Rain = 0
KME1 060005Z 17011KT 38/12 A2991 RMK A01 T03760115  RH  021%=      5-min Rain = 0
KME1 060006Z 16012KT 38/11 A2991 RMK A01 T03750114  RH  021%=      5-min Rain = 0
KME1 060007Z 16012KT 37/11 A2991 RMK A01 T03740113  RH  021%=      5-min Rain = 0
KME1 060008Z 14012KT 37/11 A2991 RMK A01 T03740114  RH  021%=      5-min Rain = 0
KME1 060009Z 15010KT 37/12 A2991 RMK A01 T03730115  RH  021%=      5-min Rain = 0
KME1 060010Z 15009KT 37/12 A2991 RMK A01 T03730116  RH  021%=      5-min Rain = 0
KME1 060011Z 15012G17KT 37/12 A2991 RMK A01 T03730116  RH  021%=      5-min Rain = 0
KME1 060012Z 16013KT 37/12 A2991 RMK A01 T03730115  RH  021%=      5-min Rain = 0
KME1 060013Z 16013KT 37/12 A2991 RMK A01 T03730115  RH  021%=      5-min Rain = 0
KME1 060014Z 16013KT 37/11 A2991 RMK A01 T03730114  RH  021%=      5-min Rain = 0
KME1 060015Z 14015KT 37/11 A2991 RMK A01 T03720114  RH  021%=      5-min Rain = 0
KME1 060016Z 15013KT 37/11 A2991 RMK A01 T03710114  RH  021%=      5-min Rain = 0
KME1 060017Z 15013KT 37/11 A2991 RMK A01 T03700114  RH  021%=      5-min Rain = 0
KME1 060018Z 15009KT 37/12 A2991 RMK A01 T03700115  RH  022%=      5-min Rain = 0
KME1 060019Z 17009KT 37/11 A2991 RMK A01 T03700114  RH  022%=      5-min Rain = 0
KME1 060020Z 17007KT 37/12 A2991 RMK A01 T03700115  RH  022%=      5-min Rain = 0
KME1 060021Z 17008KT 37/12 A2991 RMK A01 T03710115  RH  021%=      5-min Rain = 0
KME1 060022Z 17010KT 37/12 A2991 RMK A01 T03720116  RH  021%=      5-min Rain = 0
KME1 060023Z 16009KT 37/12 A2991 RMK A01 T03720116  RH  021%=      5-min Rain = 0
KME1 060024Z 17011KT 37/12 A2991 RMK A01 T03720115  RH  021%=      5-min Rain = 0
KME1 060025Z 16009KT 37/12 A2991 RMK A01 T03720115  RH  021%=      5-min Rain = 0
KME1 060026Z 15007KT 37/12 A2991 RMK A01 T03720115  RH  021%=      5-min Rain = 0
KME1 060027Z 16007KT 37/12 A2991 RMK A01 T03720115  RH  021%=      5-min Rain = 0
KME1 060028Z 16010G16KT 37/12 A2991 RMK A01 T03720116  RH  021%=      5-min Rain = 0
KME1 060029Z 15013KT 37/11 A2991 RMK A01 T03710114  RH  021%=      5-min Rain = 0
KME1 060030Z 16010KT 37/12 A2991 RMK A01 T03700115  RH  022%=      5-min Rain = 0
KME1 060031Z 16010KT 37/12 A2991 RMK A01 T03690115  RH  022%=      5-min Rain = 0
KME1 060032Z 16011KT 37/12 A2991 RMK A01 T03690116  RH  022%=      5-min Rain = 0
KME1 060033Z 16013KT 37/12 A2991 RMK A01 T03690117  RH  022%=      5-min Rain = 0
KME1 060034Z 15008KT 37/12 A2991 RMK A01 T03680118  RH  022%=      5-min Rain = 0
KME1 060035Z 17009KT 37/12 A2991 RMK A01 T03670118  RH  022%=      5-min Rain = 0
KME1 060036Z 17010KT 37/12 A2991 RMK A01 T03670118  RH  022%=      5-min Rain = 0
KME1 060037Z 18010KT 37/12 A2991 RMK A01 T03670118  RH  022%=      5-min Rain = 0
KME1 060038Z 17007KT 37/12 A2991 RMK A01 T03670119  RH  023%=      5-min Rain = 0
KME1 060039Z 16009KT 37/12 A2991 RMK A01 T03660119  RH  023%=      5-min Rain = 0
KME1 060040Z 16010KT 37/12 A2991 RMK A01 T03660119  RH  023%=      5-min Rain = 0
KME1 060041Z 16010KT 37/12 A2991 RMK A01 T03660119  RH  023%=      5-min Rain = 0
KME1 060042Z 16007KT 37/12 A2991 RMK A01 T03660119  RH  023%=      5-min Rain = 0
KME1 060043Z 17009KT 37/12 A2991 RMK A01 T03660120  RH  023%=      5-min Rain = 0
KME1 060044Z 16008KT 37/12 A2991 RMK A01 T03650119  RH  023%=      5-min Rain = 0
KME1 060045Z 16010KT 37/12 A2991 RMK A01 T03650118  RH  023%=      5-min Rain = 0
KME1 060046Z 16008KT 36/12 A2991 RMK A01 T03640118  RH  023%=      5-min Rain = 0
KME1 060047Z 16007KT 36/12 A2991 RMK A01 T03640119  RH  023%=      5-min Rain = 0
KME1 060048Z 16011KT 36/12 A2992 RMK A01 T03640119  RH  023%=      5-min Rain = 0
KME1 060049Z 16012KT 36/12 A2992 RMK A01 T03640119  RH  023%=      5-min Rain = 0
KME1 060050Z 16011KT 36/12 A2991 RMK A01 T03630118  RH  023%=      5-min Rain = 0
KME1 060051Z 17012KT 36/12 A2991 RMK A01 T03620117  RH  023%=      5-min Rain = 0
KME1 060052Z 16011KT 36/12 A2991 RMK A01 T03620118  RH  023%=      5-min Rain = 0
KME1 060053Z 16010KT 36/12 A2991 RMK A01 T03620118  RH  023%=      5-min Rain = 0
KME1 060054Z 17013KT 36/12 A2991 RMK A01 T03610118  RH  023%=      5-min Rain = 0
KME1 060055Z 15011KT 36/12 A2991 RMK A01 T03610118  RH  023%=      5-min Rain = 0
KME1 060056Z 16011KT 36/12 A2991 RMK A01 T03610119  RH  023%=      5-min Rain = 0
KME1 060057Z 17009KT 36/12 A2991 RMK A01 T03600118  RH  023%=      5-min Rain = 0
KME1 060058Z 17007KT 36/12 A2991 RMK A01 T03600118  RH  023%=      5-min Rain = 0
KME1 060059Z 17008KT 36/12 A2991 RMK A01 T03590118  RH  023%=      5-min Rain = 0
KME1 060100Z 17009KT 36/12 A2991 RMK A01 T03590117  RH  023%=      5-min Rain = 0
KME1 060101Z 15012KT 36/12 A2991 RMK A01 T03590118  RH  023%=      5-min Rain = 0
KME1 060102Z 16011KT 36/12 A2991 RMK A01 T03580118  RH  023%=      5-min Rain = 0
KME1 060103Z 16009KT 36/12 A2992 RMK A01 T03580118  RH  024%=      5-min Rain = 0
KME1 060104Z 16012KT 36/12 A2991 RMK A01 T03570118  RH  024%=      5-min Rain = 0
KME1 060105Z 16011KT 36/12 A2991 RMK A01 T03560117  RH  024%=      5-min Rain = 0
KME1 060106Z 17012KT 36/12 A2992 RMK A01 T03560117  RH  024%=      5-min Rain = 0
KME1 060107Z 16013KT 36/12 A2992 RMK A01 T03560117  RH  024%=      5-min Rain = 0
KME1 060108Z 16012KT 36/12 A2992 RMK A01 T03560116  RH  024%=      5-min Rain = 0
KME1 060109Z 17009KT 36/12 A2992 RMK A01 T03560116  RH  023%=      5-min Rain = 0
KME1 060110Z 17009KT 36/12 A2992 RMK A01 T03550116  RH  024%=      5-min Rain = 0
KME1 060111Z 17009KT 36/12 A2992 RMK A01 T03550117  RH  024%=      5-min Rain = 0
KME1 060112Z 17008KT 35/12 A2992 RMK A01 T03540117  RH  024%=      5-min Rain = 0
KME1 060113Z 17009G14KT 35/12 A2992 RMK A01 T03530117  RH  024%=      5-min Rain = 0
KME1 060114Z 16009KT 35/12 A2992 RMK A01 T03530116  RH  024%=      5-min Rain = 0
KME1 060115Z 17009KT 35/12 A2992 RMK A01 T03530117  RH  024%=      5-min Rain = 0
KME1 060116Z 17009KT 35/12 A2992 RMK A01 T03530117  RH  024%=      5-min Rain = 0
KME1 060117Z 17010KT 35/12 A2992 RMK A01 T03520117  RH  024%=      5-min Rain = 0
KME1 060118Z 17008KT 35/12 A2992 RMK A01 T03520116  RH  024%=      5-min Rain = 0
KME1 060119Z 16007KT 35/12 A2992 RMK A01 T03520117  RH  024%=      5-min Rain = 0
KME1 060120Z 16008KT 35/12 A2992 RMK A01 T03510117  RH  024%=      5-min Rain = 0
KME1 060121Z 17011KT 35/12 A2992 RMK A01 T03500117  RH  024%=      5-min Rain = 0
KME1 060122Z 16009KT 35/12 A2992 RMK A01 T03500117  RH  024%=      5-min Rain = 0
KME1 060123Z 16010KT 35/12 A2992 RMK A01 T03490117  RH  024%=      5-min Rain = 0
KME1 060124Z 16009KT 35/12 A2992 RMK A01 T03490117  RH  025%=      5-min Rain = 0
KME1 060125Z 17010KT 35/12 A2992 RMK A01 T03490117  RH  025%=      5-min Rain = 0
KME1 060126Z 17011KT 35/12 A2992 RMK A01 T03490116  RH  025%=      5-min Rain = 0
KME1 060127Z 17011KT 35/12 A2992 RMK A01 T03490116  RH  024%=      5-min Rain = 0
KME1 060128Z 16009KT 35/12 A2992 RMK A01 T03490116  RH  024%=      5-min Rain = 0
KME1 060129Z 16011KT 35/12 A2992 RMK A01 T03490116  RH  024%=      5-min Rain = 0
KME1 060130Z 16008KT 35/12 A2992 RMK A01 T03490116  RH  024%=      5-min Rain = 0
KME1 060131Z 16008KT 35/12 A2992 RMK A01 T03480116  RH  025%=      5-min Rain = 0
KME1 060132Z 16009KT 35/12 A2992 RMK A01 T03460115  RH  025%=      5-min Rain = 0
KME1 060133Z 16007KT 35/12 A2992 RMK A01 T03460116  RH  025%=      5-min Rain = 0
KME1 060134Z 17009KT 35/12 A2992 RMK A01 T03450116  RH  025%=      5-min Rain = 0
KME1 060135Z 17008KT 35/12 A2992 RMK A01 T03450116  RH  025%=      5-min Rain = 0
KME1 060136Z 16007KT 34/12 A2992 RMK A01 T03440116  RH  025%=      5-min Rain = 0
KME1 060137Z 16008KT 34/12 A2992 RMK A01 T03440116  RH  025%=      5-min Rain = 0
KME1 060138Z 17009KT 34/12 A2992 RMK A01 T03430117  RH  025%=      5-min Rain = 0
KME1 060139Z 16007KT 34/12 A2992 RMK A01 T03430117  RH  025%=      5-min Rain = 0
KME1 060140Z 16008KT 34/12 A2992 RMK A01 T03420117  RH  025%=      5-min Rain = 0
KME1 060141Z 16007KT 34/12 A2993 RMK A01 T03420117  RH  026%=      5-min Rain = 0
KME1 060142Z 17008KT 34/12 A2992 RMK A01 T03410117  RH  026%=      5-min Rain = 0
KME1 060143Z 16008KT 34/12 A2992 RMK A01 T03410117  RH  026%=      5-min Rain = 0
KME1 060144Z 16008KT 34/12 A2993 RMK A01 T03410117  RH  026%=      5-min Rain = 0
KME1 060145Z 17007KT 34/12 A2993 RMK A01 T03410117  RH  026%=      5-min Rain = 0
KME1 060146Z 17009KT 34/12 A2993 RMK A01 T03400117  RH  026%=      5-min Rain = 0
KME1 060147Z 17008KT 34/12 A2993 RMK A01 T03400117  RH  026%=      5-min Rain = 0
KME1 060148Z 17007KT 34/12 A2993 RMK A01 T03400117  RH  026%=      5-min Rain = 0
KME1 060149Z 17007KT 34/12 A2993 RMK A01 T03390117  RH  026%=      5-min Rain = 0
KME1 060150Z 16007KT 34/12 A2993 RMK A01 T03380117  RH  026%=      5-min Rain = 0
KME1 060151Z 17007KT 34/12 A2993 RMK A01 T03370117  RH  026%=      5-min Rain = 0
KME1 060152Z 17006KT 34/12 A2993 RMK A01 T03370117  RH  026%=      5-min Rain = 0
KME1 060153Z 16006KT 34/12 A2993 RMK A01 T03360117  RH  026%=      5-min Rain = 0
KME1 060154Z 17008KT 34/12 A2993 RMK A01 T03350117  RH  027%=      5-min Rain = 0
KME1 060155Z 16006KT 33/12 A2993 RMK A01 T03340117  RH  027%=      5-min Rain = 0
KME1 060156Z 16007KT 34/12 A2993 RMK A01 T03350117  RH  027%=      5-min Rain = 0
KME1 060157Z 17007KT 33/12 A2993 RMK A01 T03340118  RH  027%=      5-min Rain = 0
KME1 060158Z 16006KT 33/12 A2993 RMK A01 T03340117  RH  027%=      5-min Rain = 0
KME1 060159Z 17007KT 33/12 A2993 RMK A01 T03330117  RH  027%=      5-min Rain = 0
KME1 060200Z 17007KT 33/12 A2993 RMK A01 T03320117  RH  027%=      5-min Rain = 0
KME1 060201Z 17007KT 33/12 A2993 RMK A01 T03320118  RH  027%=      5-min Rain = 0
KME1 060202Z 17006KT 33/12 A2993 RMK A01 T03320118  RH  027%=      5-min Rain = 0
KME1 060203Z 17008KT 33/12 A2993 RMK A01 T03320118  RH  027%=      5-min Rain = 0
KME1 060204Z 17007KT 33/12 A2993 RMK A01 T03320118  RH  027%=      5-min Rain = 0
KME1 060205Z 16008KT 33/12 A2993 RMK A01 T03320119  RH  027%=      5-min Rain = 0
KME1 060206Z 17009KT 33/12 A2993 RMK A01 T03330119  RH  027%=      5-min Rain = 0
KME1 060207Z 17008KT 33/12 A2993 RMK A01 T03330120  RH  027%=      5-min Rain = 0
KME1 060208Z 17008KT 33/12 A2993 RMK A01 T03330120  RH  027%=      5-min Rain = 0
KME1 060209Z 17009KT 33/12 A2993 RMK A01 T03320120  RH  028%=      5-min Rain = 0
KME1 060210Z 17007KT 33/12 A2993 RMK A01 T03320121  RH  028%=      5-min Rain = 0
KME1 060211Z 17009KT 33/12 A2993 RMK A01 T03320121  RH  028%=      5-min Rain = 0
KME1 060212Z 17007KT 33/12 A2993 RMK A01 T03320121  RH  028%=      5-min Rain = 0
KME1 060213Z 17009KT 33/12 A2993 RMK A01 T03320122  RH  028%=      5-min Rain = 0
KME1 060214Z 17007KT 33/12 A2993 RMK A01 T03310122  RH  028%=      5-min Rain = 0
KME1 060215Z 16008KT 33/12 A2993 RMK A01 T03310122  RH  028%=      5-min Rain = 0
KME1 060216Z 17007KT 33/12 A2993 RMK A01 T03310122  RH  028%=      5-min Rain = 0
KME1 060217Z 17009KT 33/12 A2993 RMK A01 T03310122  RH  028%=      5-min Rain = 0
KME1 060218Z 17006KT 33/12 A2994 RMK A01 T03310123  RH  028%=      5-min Rain = 0
KME1 060219Z 17008KT 33/12 A2994 RMK A01 T03300123  RH  028%=      5-min Rain = 0
KME1 060220Z 17007KT 33/12 A2994 RMK A01 T03300123  RH  028%=      5-min Rain = 0
KME1 060221Z 18006KT 33/12 A2994 RMK A01 T03290123  RH  029%=      5-min Rain = 0
KME1 060222Z 17008KT 33/12 A2994 RMK A01 T03280123  RH  029%=      5-min Rain = 0
KME1 060223Z 18008KT 33/12 A2994 RMK A01 T03280124  RH  029%=      5-min Rain = 0
KME1 060224Z 17007KT 33/12 A2994 RMK A01 T03270124  RH  029%=      5-min Rain = 0
KME1 060225Z 17007KT 33/12 A2994 RMK A01 T03270124  RH  029%=      5-min Rain = 0
KME1 060226Z 18006KT 33/12 A2994 RMK A01 T03260124  RH  029%=      5-min Rain = 0
KME1 060227Z 17005KT 33/12 A2994 RMK A01 T03260124  RH  029%=      5-min Rain = 0
KME1 060228Z 17006KT 33/13 A2994 RMK A01 T03250125  RH  029%=      5-min Rain = 0
KME1 060229Z 18006KT 32/13 A2994 RMK A01 T03240125  RH  030%=      5-min Rain = 0
KME1 060230Z 18006KT 32/13 A2994 RMK A01 T03240125  RH  030%=      5-min Rain = 0
KME1 060231Z 18006KT 32/13 A2994 RMK A01 T03230125  RH  030%=      5-min Rain = 0
KME1 060232Z 18007KT 32/13 A2994 RMK A01 T03230125  RH  030%=      5-min Rain = 0
KME1 060233Z 17006KT 32/13 A2994 RMK A01 T03230125  RH  030%=      5-min Rain = 0
KME1 060234Z 17005KT 32/13 A2994 RMK A01 T03230125  RH  030%=      5-min Rain = 0
KME1 060235Z 17005KT 32/13 A2994 RMK A01 T03220125  RH  030%=      5-min Rain = 0
KME1 060236Z 17005KT 32/13 A2994 RMK A01 T03210125  RH  030%=      5-min Rain = 0
KME1 060237Z 17005KT 32/13 A2994 RMK A01 T03200125  RH  030%=      5-min Rain = 0
KME1 060238Z 17005KT 32/13 A2994 RMK A01 T03190125  RH  031%=      5-min Rain = 0
KME1 060239Z 17006KT 32/13 A2995 RMK A01 T03190125  RH  031%=      5-min Rain = 0
KME1 060240Z 17006KT 32/13 A2995 RMK A01 T03190125  RH  031%=      5-min Rain = 0
KME1 060241Z 17006KT 32/13 A2995 RMK A01 T03190126  RH  031%=      5-min Rain = 0
KME1 060242Z 17006KT 32/13 A2995 RMK A01 T03190126  RH  031%=      5-min Rain = 0
KME1 060243Z 16005KT 32/13 A2995 RMK A01 T03180126  RH  031%=      5-min Rain = 0
KME1 060244Z 16006KT 32/13 A2995 RMK A01 T03170126  RH  031%=      5-min Rain = 0
KME1 060245Z 16007KT 32/13 A2995 RMK A01 T03170126  RH  031%=      5-min Rain = 0
KME1 060246Z 16007KT 32/13 A2995 RMK A01 T03170126  RH  031%=      5-min Rain = 0
KME1 060247Z 16006KT 32/13 A2995 RMK A01 T03170127  RH  031%=      5-min Rain = 0
KME1 060248Z 17008KT 32/13 A2995 RMK A01 T03170127  RH  031%=      5-min Rain = 0
KME1 060249Z 17008KT 32/13 A2995 RMK A01 T03170127  RH  031%=      5-min Rain = 0
KME1 060250Z 16007KT 32/13 A2995 RMK A01 T03170127  RH  031%=      5-min Rain = 0
KME1 060251Z 17007KT 32/13 A2995 RMK A01 T03180127  RH  031%=      5-min Rain = 0
KME1 060252Z 17009KT 32/13 A2995 RMK A01 T03180127  RH  031%=      5-min Rain = 0
KME1 060253Z 17008KT 32/13 A2995 RMK A01 T03180127  RH  031%=      5-min Rain = 0
KME1 060254Z 17007KT 32/13 A2995 RMK A01 T03180128  RH  031%=      5-min Rain = 0
KME1 060255Z 17007KT 32/13 A2995 RMK A01 T03180128  RH  031%=      5-min Rain = 0
KME1 060256Z 18007KT 32/13 A2995 RMK A01 T03170127  RH  031%=      5-min Rain = 0
KME1 060257Z 18006KT 32/13 A2995 RMK A01 T03170128  RH  032%=      5-min Rain = 0
KME1 060258Z 18007KT 32/13 A2995 RMK A01 T03160128  RH  032%=      5-min Rain = 0
KME1 060259Z 18006KT 32/13 A2995 RMK A01 T03160128  RH  032%=      5-min Rain = 0
KME1 060300Z 18006KT 32/13 A2995 RMK A01 T03160128  RH  032%=      5-min Rain = 0
KME1 060301Z 18006KT 32/13 A2996 RMK A01 T03160128  RH  032%=      5-min Rain = 0
KME1 060302Z 17005KT 32/13 A2996 RMK A01 T03150128  RH  032%=      5-min Rain = 0
KME1 060303Z 18006KT 32/13 A2996 RMK A01 T03150128  RH  032%=      5-min Rain = 0
KME1 060304Z 17005KT 31/13 A2996 RMK A01 T03140128  RH  032%=      5-min Rain = 0
KME1 060305Z 17007KT 31/13 A2996 RMK A01 T03140128  RH  032%=      5-min Rain = 0
KME1 060306Z 18005KT 31/13 A2996 RMK A01 T03130128  RH  032%=      5-min Rain = 0
KME1 060307Z 17005KT 31/13 A2996 RMK A01 T03130128  RH  032%=      5-min Rain = 0
KME1 060308Z 18005KT 31/13 A2996 RMK A01 T03120129  RH  033%=      5-min Rain = 0
KME1 060309Z 18006KT 31/13 A2996 RMK A01 T03110129  RH  033%=      5-min Rain = 0
KME1 060310Z 17005KT 31/13 A2996 RMK A01 T03110129  RH  033%=      5-min Rain = 0
KME1 060311Z 18006KT 31/13 A2996 RMK A01 T03100129  RH  033%=      5-min Rain = 0
KME1 060312Z 18005KT 31/13 A2996 RMK A01 T03100129  RH  033%=      5-min Rain = 0
KME1 060313Z 17006KT 31/13 A2996 RMK A01 T03090129  RH  033%=      5-min Rain = 0
KME1 060314Z 17005KT 31/13 A2996 RMK A01 T03090129  RH  033%=      5-min Rain = 0
KME1 060315Z 18006KT 31/13 A2996 RMK A01 T03090129  RH  033%=      5-min Rain = 0
KME1 060316Z 19005KT 31/13 A2996 RMK A01 T03090130  RH  033%=      5-min Rain = 0
KME1 060317Z 19005KT 31/13 A2996 RMK A01 T03090130  RH  033%=      5-min Rain = 0
KME1 060318Z 18006KT 31/13 A2996 RMK A01 T03080130  RH  034%=      5-min Rain = 0
KME1 060319Z 18006KT 31/13 A2996 RMK A01 T03080130  RH  034%=      5-min Rain = 0
KME1 060320Z 19006KT 31/13 A2996 RMK A01 T03080130  RH  034%=      5-min Rain = 0
KME1 060321Z 18007KT 31/13 A2996 RMK A01 T03080131  RH  034%=      5-min Rain = 0
KME1 060322Z 18006KT 31/13 A2996 RMK A01 T03070131  RH  034%=      5-min Rain = 0
KME1 060323Z 18006KT 31/13 A2996 RMK A01 T03070131  RH  034%=      5-min Rain = 0
KME1 060324Z 18007KT 31/13 A2996 RMK A01 T03070131  RH  034%=      5-min Rain = 0
KME1 060325Z 18007KT 31/13 A2996 RMK A01 T03070131  RH  034%=      5-min Rain = 0
KME1 060326Z 18006KT 31/13 A2996 RMK A01 T03070131  RH  034%=      5-min Rain = 0
KME1 060327Z 18006KT 31/13 A2997 RMK A01 T03070131  RH  034%=      5-min Rain = 0
KME1 060328Z 18007KT 31/13 A2997 RMK A01 T03070131  RH  034%=      5-min Rain = 0
KME1 060329Z 18006KT 31/13 A2997 RMK A01 T03070132  RH  034%=      5-min Rain = 0
KME1 060330Z 18007KT 31/13 A2997 RMK A01 T03060132  RH  034%=      5-min Rain = 0
KME1 060331Z 18006KT 31/13 A2997 RMK A01 T03060132  RH  034%=      5-min Rain = 0
KME1 060332Z 18006KT 31/13 A2997 RMK A01 T03060132  RH  035%=      5-min Rain = 0
KME1 060333Z 18007KT 31/13 A2997 RMK A01 T03050131  RH  035%=      5-min Rain = 0
KME1 060334Z 18007KT 31/13 A2997 RMK A01 T03050131  RH  034%=      5-min Rain = 0
KME1 060335Z 18008KT 31/13 A2997 RMK A01 T03060131  RH  034%=      5-min Rain = 0
KME1 060336Z 17008KT 31/13 A2997 RMK A01 T03060131  RH  034%=      5-min Rain = 0
KME1 060337Z 17008KT 31/13 A2997 RMK A01 T03060132  RH  034%=      5-min Rain = 0
KME1 060338Z 18008KT 31/13 A2997 RMK A01 T03070132  RH  034%=      5-min Rain = 0
KME1 060339Z 17006KT 31/13 A2997 RMK A01 T03070132  RH  034%=      5-min Rain = 0
KME1 060340Z 18006KT 31/13 A2997 RMK A01 T03060132  RH  034%=      5-min Rain = 0
KME1 060341Z 18006KT 31/13 A2997 RMK A01 T03050132  RH  035%=      5-min Rain = 0
KME1 060342Z 18007KT 31/13 A2997 RMK A01 T03050132  RH  035%=      5-min Rain = 0
KME1 060343Z 18007KT 30/13 A2997 RMK A01 T03040132  RH  035%=      5-min Rain = 0
KME1 060344Z 17007KT 30/13 A2997 RMK A01 T03040132  RH  035%=      5-min Rain = 0
KME1 060345Z 18007KT 30/13 A2997 RMK A01 T03040132  RH  035%=      5-min Rain = 0
KME1 060346Z 18006KT 30/13 A2997 RMK A01 T03040132  RH  035%=      5-min Rain = 0
KME1 060347Z 18006KT 30/13 A2997 RMK A01 T03040132  RH  035%=      5-min Rain = 0
KME1 060348Z 18007KT 30/13 A2997 RMK A01 T03040132  RH  035%=      5-min Rain = 0
KME1 060349Z 18007KT 30/13 A2997 RMK A01 T03040132  RH  035%=      5-min Rain = 0
KME1 060350Z 18006KT 30/13 A2997 RMK A01 T03040133  RH  035%=      5-min Rain = 0
KME1 060351Z 18008KT 30/13 A2997 RMK A01 T03030132  RH  035%=      5-min Rain = 0
KME1 060352Z 19007KT 30/13 A2997 RMK A01 T03030132  RH  035%=      5-min Rain = 0
KME1 060353Z 18006KT 30/13 A2997 RMK A01 T03020133  RH  035%=      5-min Rain = 0
KME1 060354Z 18007KT 30/13 A2997 RMK A01 T03020132  RH  035%=      5-min Rain = 0
KME1 060355Z 18006KT 30/13 A2997 RMK A01 T03010132  RH  036%=      5-min Rain = 0
KME1 060356Z 18007KT 30/13 A2997 RMK A01 T03000132  RH  036%=      5-min Rain = 0
KME1 060357Z 18007KT 30/13 A2997 RMK A01 T03000132  RH  036%=      5-min Rain = 0
KME1 060358Z 18006KT 30/13 A2997 RMK A01 T03000132  RH  036%=      5-min Rain = 0
KME1 060359Z 18008KT 30/13 A2997 RMK A01 T02990132  RH  036%=      5-min Rain = 0
KME1 060400Z 18008KT 30/13 A2997 RMK A01 T02990132  RH  036%=      5-min Rain = 0
KME1 060401Z 18007KT 30/13 A2997 RMK A01 T03000132  RH  036%=      5-min Rain = 0
KME1 060402Z 18008KT 30/13 A2997 RMK A01 T03000132  RH  036%=      5-min Rain = 0
KME1 060403Z 18008KT 30/13 A2997 RMK A01 T03000132  RH  036%=      5-min Rain = 0
KME1 060404Z 18008KT 30/13 A2997 RMK A01 T03000133  RH  036%=      5-min Rain = 0
KME1 060405Z 18008KT 30/13 A2997 RMK A01 T03000132  RH  036%=      5-min Rain = 0
KME1 060406Z 18008KT 30/13 A2998 RMK A01 T03000132  RH  036%=      5-min Rain = 0
KME1 060407Z 18007KT 30/13 A2998 RMK A01 T02990132  RH  036%=      5-min Rain = 0
KME1 060408Z 18008KT 30/13 A2998 RMK A01 T02980133  RH  036%=      5-min Rain = 0
KME1 060409Z 18006KT 30/13 A2998 RMK A01 T02980132  RH  036%=      5-min Rain = 0
KME1 060410Z 18008KT 30/13 A2998 RMK A01 T02970132  RH  036%=      5-min Rain = 0
KME1 060411Z 18008KT 30/13 A2998 RMK A01 T02970132  RH  036%=      5-min Rain = 0
KME1 060412Z 18008KT 30/13 A2998 RMK A01 T02970132  RH  036%=      5-min Rain = 0
KME1 060413Z 18008KT 30/13 A2998 RMK A01 T02970132  RH  036%=      5-min Rain = 0
KME1 060414Z 18008KT 30/13 A2998 RMK A01 T02970132  RH  036%=      5-min Rain = 0
KME1 060415Z 18008KT 30/13 A2998 RMK A01 T02970132  RH  036%=      5-min Rain = 0
KME1 060416Z 18008KT 30/13 A2998 RMK A01 T02970132  RH  036%=      5-min Rain = 0
KME1 060417Z 18007KT 30/13 A2998 RMK A01 T02970132  RH  036%=      5-min Rain = 0
KME1 060418Z 18009KT 30/13 A2998 RMK A01 T02970133  RH  037%=      5-min Rain = 0
KME1 060419Z 18007KT 30/13 A2998 RMK A01 T02970133  RH  037%=      5-min Rain = 0
KME1 060420Z 18007KT 30/13 A2998 RMK A01 T02970133  RH  037%=      5-min Rain = 0
KME1 060421Z 18008KT 30/13 A2998 RMK A01 T02960133  RH  037%=      5-min Rain = 0
KME1 060422Z 18007KT 30/13 A2998 RMK A01 T02960133  RH  037%=      5-min Rain = 0
KME1 060423Z 18008KT 30/13 A2998 RMK A01 T02950133  RH  037%=      5-min Rain = 0
KME1 060424Z 19007KT 30/13 A2998 RMK A01 T02950133  RH  037%=      5-min Rain = 0
KME1 060425Z 18007KT 30/13 A2998 RMK A01 T02950133  RH  037%=      5-min Rain = 0
KME1 060426Z 18007KT 29/13 A2998 RMK A01 T02930133  RH  037%=      5-min Rain = 0
KME1 060427Z 18006KT 29/13 A2998 RMK A01 T02930133  RH  037%=      5-min Rain = 0
KME1 060428Z 18007KT 29/13 A2998 RMK A01 T02930133  RH  038%=      5-min Rain = 0
KME1 060429Z 18007KT 29/13 A2998 RMK A01 T02920133  RH  038%=      5-min Rain = 0
KME1 060430Z 18006KT 29/13 A2998 RMK A01 T02920133  RH  038%=      5-min Rain = 0
KME1 060431Z 18006KT 29/13 A2998 RMK A01 T02910133  RH  038%=      5-min Rain = 0
KME1 060432Z 18007KT 29/13 A2998 RMK A01 T02900133  RH  038%=      5-min Rain = 0
KME1 060433Z 18006KT 29/13 A2998 RMK A01 T02900133  RH  038%=      5-min Rain = 0
KME1 060434Z 18007KT 29/13 A2998 RMK A01 T02890133  RH  038%=      5-min Rain = 0
KME1 060435Z 18007KT 29/13 A2998 RMK A01 T02890133  RH  038%=      5-min Rain = 0
KME1 060436Z 18008KT 29/13 A2998 RMK A01 T02890133  RH  038%=      5-min Rain = 0
KME1 060437Z 18006KT 29/13 A2998 RMK A01 T02890133  RH  038%=      5-min Rain = 0
KME1 060438Z 18007KT 29/13 A2998 RMK A01 T02890133  RH  038%=      5-min Rain = 0
KME1 060439Z 18007KT 29/13 A2998 RMK A01 T02890133  RH  038%=      5-min Rain = 0
KME1 060440Z 18006KT 29/13 A2998 RMK A01 T02880133  RH  038%=      5-min Rain = 0
KME1 060441Z 18007KT 29/13 A2998 RMK A01 T02880133  RH  039%=      5-min Rain = 0
KME1 060442Z 18007KT 29/13 A2998 RMK A01 T02880133  RH  039%=      5-min Rain = 0
KME1 060443Z 18007KT 29/13 A2998 RMK A01 T02880133  RH  039%=      5-min Rain = 0
KME1 060444Z 18006KT 29/13 A2998 RMK A01 T02870133  RH  039%=      5-min Rain = 0
KME1 060445Z 18007KT 29/13 A2998 RMK A01 T02870133  RH  039%=      5-min Rain = 0
KME1 060446Z 18006KT 29/13 A2998 RMK A01 T02860133  RH  039%=      5-min Rain = 0
KME1 060447Z 18007KT 29/13 A2999 RMK A01 T02860133  RH  039%=      5-min Rain = 0
KME1 060448Z 18006KT 29/13 A2998 RMK A01 T02850133  RH  039%=      5-min Rain = 0
KME1 060449Z 18007KT 29/13 A2999 RMK A01 T02850133  RH  039%=      5-min Rain = 0
KME1 060450Z 18007KT 28/13 A2998 RMK A01 T02840132  RH  039%=      5-min Rain = 0
KME1 060451Z 18006KT 28/13 A2998 RMK A01 T02840133  RH  039%=      5-min Rain = 0
KME1 060452Z 18008KT 28/13 A2998 RMK A01 T02840133  RH  039%=      5-min Rain = 0
KME1 060453Z 18008KT 28/13 A2998 RMK A01 T02840133  RH  039%=      5-min Rain = 0
KME1 060454Z 18008KT 28/13 A2998 RMK A01 T02840133  RH  039%=      5-min Rain = 0
KME1 060455Z 18009KT 28/13 A2998 RMK A01 T02840132  RH  039%=      5-min Rain = 0
KME1 060456Z 17009KT 28/13 A2998 RMK A01 T02840132  RH  039%=      5-min Rain = 0
KME1 060457Z 18009KT 28/13 A2998 RMK A01 T02840133  RH  039%=      5-min Rain = 0
KME1 060458Z 18008KT 28/13 A2998 RMK A01 T02840133  RH  039%=      5-min Rain = 0
KME1 060459Z 18009KT 28/13 A2998 RMK A01 T02840133  RH  039%=      5-min Rain = 0

Page generated in 0.1722 seconds.